Home > Products > Valid Products > TAF

000
FTUS44 KOUN 241123
TAFSPS
TAF
KSPS 241123Z 2412/2512 31013KT P6SM SCT150
     FM250000 36005KT P6SM SCT120=



000
FTUS44 KOUN 241123
TAFOUN
TAF
KOUN 241123Z 2412/2512 28010KT P6SM FEW150
     FM241600 29014G22KT P6SM SCT150
     FM250000 36006KT P6SM SCT120=



000
FTUS44 KOUN 241123
TAFHBR
TAF
KHBR 241123Z 2412/2512 31014G22KT P6SM SCT150
     FM250000 35007KT P6SM SCT120=



000
FTUS44 KOUN 241123
TAFWWR
TAF
KWWR 241123Z 2412/2512 30016G24KT P6SM SCT150
     FM250000 33008KT P6SM BKN120=



000
FTUS44 KOUN 241123
TAFLAW
TAF
KLAW 241123Z 2412/2512 32010KT P6SM SCT150
     FM241600 31013G21KT P6SM FEW150
     FM250000 36005KT P6SM SCT120=



000
FTUS44 KOUN 241123
TAFGAG
TAF
KGAG 241123Z 2412/2512 30016G24KT P6SM SCT150
     FM250000 33008KT P6SM BKN120=



000
FTUS44 KOUN 241123
TAFPNC
TAF
KPNC 241123Z 2412/2512 29016G26KT P6SM SCT150
     FM250000 01006KT P6SM SCT120=



000
FTUS44 KOUN 241123
TAFOKC
TAF
KOKC 241123Z 2412/2512 29010KT P6SM FEW150
     FM241600 30017G24KT P6SM SCT150
     FM250000 01007KT P6SM SCT120=



000
FTUS44 KOUN 241123
TAFOKC
TAF
KOKC 241123Z 2412/2512 29010KT P6SM FEW150
     FM241600 30017G24KT P6SM SCT150
     FM250000 01007KT P6SM SCT120=



000
FTUS44 KOUN 241123
TAFSPS
TAF
KSPS 241123Z 2412/2512 31013KT P6SM SCT150
     FM250000 36005KT P6SM SCT120=



000
FTUS44 KOUN 241123
TAFGAG
TAF
KGAG 241123Z 2412/2512 30016G24KT P6SM SCT150
     FM250000 33008KT P6SM BKN120=



000
FTUS44 KOUN 241123
TAFPNC
TAF
KPNC 241123Z 2412/2512 29016G26KT P6SM SCT150
     FM250000 01006KT P6SM SCT120=



000
FTUS44 KOUN 241123
TAFLAW
TAF
KLAW 241123Z 2412/2512 32010KT P6SM SCT150
     FM241600 31013G21KT P6SM FEW150
     FM250000 36005KT P6SM SCT120=



000
FTUS44 KOUN 241123
TAFOUN
TAF
KOUN 241123Z 2412/2512 28010KT P6SM FEW150
     FM241600 29014G22KT P6SM SCT150
     FM250000 36006KT P6SM SCT120=



000
FTUS44 KOUN 241123
TAFWWR
TAF
KWWR 241123Z 2412/2512 30016G24KT P6SM SCT150
     FM250000 33008KT P6SM BKN120=



000
FTUS44 KOUN 241123
TAFHBR
TAF
KHBR 241123Z 2412/2512 31014G22KT P6SM SCT150
     FM250000 35007KT P6SM SCT120=



000
FTUS44 KOUN 240535
TAFOKC
TAF
KOKC 240535Z 2406/2506 29010KT P6SM SCT150
     FM241600 30016G23KT P6SM SKC
     FM250000 33007KT P6SM FEW150=



000
FTUS44 KOUN 240535
TAFGAG
TAF
KGAG 240535Z 2406/2506 29011KT P6SM SCT150
     FM241600 31014G22KT P6SM SKC
     FM250000 32006KT P6SM SCT150=



000
FTUS44 KOUN 240535
TAFPNC
TAF
KPNC 240535Z 2406/2506 28010KT P6SM SCT150
     FM241600 29015G22KT P6SM SKC
     FM250000 31006KT P6SM FEW150=



000
FTUS44 KOUN 240535
TAFOUN
TAF
KOUN 240535Z 2406/2506 29010KT P6SM SCT150
     FM241600 30016G23KT P6SM SKC
     FM250000 33007KT P6SM FEW150=



000
FTUS44 KOUN 240535
TAFWWR
TAF
KWWR 240535Z 2406/2506 29011KT P6SM SCT150
     FM241600 31014G22KT P6SM SKC
     FM250000 32006KT P6SM SCT150=



000
FTUS44 KOUN 240535
TAFSPS
TAF
KSPS 240535Z 2406/2506 29010KT P6SM SCT150
     FM241600 29013KT P6SM SKC
     FM250000 VRB04KT P6SM FEW150=



000
FTUS44 KOUN 240535
TAFHBR
TAF
KHBR 240535Z 2406/2506 29011KT P6SM SCT150
     FM241600 30015G23KT P6SM SKC
     FM250000 35006KT P6SM FEW150=



000
FTUS44 KOUN 240535
TAFLAW
TAF
KLAW 240535Z 2406/2506 30008KT P6SM SCT150
     FM241600 29013KT P6SM SKC
     FM250000 VRB04KT P6SM FEW150=



000
FTUS44 KOUN 240535
TAFLAW
TAF
KLAW 240535Z 2406/2506 30008KT P6SM SCT150
     FM241600 29013KT P6SM SKC
     FM250000 VRB04KT P6SM FEW150=



000
FTUS44 KOUN 240535
TAFPNC
TAF
KPNC 240535Z 2406/2506 28010KT P6SM SCT150
     FM241600 29015G22KT P6SM SKC
     FM250000 31006KT P6SM FEW150=



000
FTUS44 KOUN 240535
TAFGAG
TAF
KGAG 240535Z 2406/2506 29011KT P6SM SCT150
     FM241600 31014G22KT P6SM SKC
     FM250000 32006KT P6SM SCT150=



000
FTUS44 KOUN 240535
TAFOUN
TAF
KOUN 240535Z 2406/2506 29010KT P6SM SCT150
     FM241600 30016G23KT P6SM SKC
     FM250000 33007KT P6SM FEW150=



000
FTUS44 KOUN 240535
TAFOKC
TAF
KOKC 240535Z 2406/2506 29010KT P6SM SCT150
     FM241600 30016G23KT P6SM SKC
     FM250000 33007KT P6SM FEW150=



000
FTUS44 KOUN 240535
TAFHBR
TAF
KHBR 240535Z 2406/2506 29011KT P6SM SCT150
     FM241600 30015G23KT P6SM SKC
     FM250000 35006KT P6SM FEW150=



000
FTUS44 KOUN 240535
TAFSPS
TAF
KSPS 240535Z 2406/2506 29010KT P6SM SCT150
     FM241600 29013KT P6SM SKC
     FM250000 VRB04KT P6SM FEW150=



000
FTUS44 KOUN 240535
TAFWWR
TAF
KWWR 240535Z 2406/2506 29011KT P6SM SCT150
     FM241600 31014G22KT P6SM SKC
     FM250000 32006KT P6SM SCT150=



000
FTUS44 KOUN 232323
TAFGAG
TAF
KGAG 232323Z 2400/2424 34013G19KT P6SM BKN100
     FM240200 30011KT P6SM SCT150
     FM241600 29014G20KT P6SM SKC=



000
FTUS44 KOUN 232323
TAFOUN
TAF
KOUN 232323Z 2400/2424 32024G32KT P6SM OVC025
      TEMPO 2400/2402 6SM -RA BR
     FM240200 31019G25KT P6SM BKN100
     FM240500 29013KT P6SM SCT150
     FM241600 29016G23KT P6SM SKC=



000
FTUS44 KOUN 232323
TAFLAW
TAF
KLAW 232323Z 2400/2424 33022G34KT P6SM BKN040
      TEMPO 2400/2402 -RA OVC025
     FM240200 30010KT P6SM SCT150
     FM241600 29014KT P6SM SKC=



000
FTUS44 KOUN 232323
TAFOUN
TAF
KOUN 232323Z 2400/2424 32024G32KT P6SM OVC025
      TEMPO 2400/2402 6SM -RA BR
     FM240200 31019G25KT P6SM BKN100
     FM240500 29013KT P6SM SCT150
     FM241600 29016G23KT P6SM SKC=



000
FTUS44 KOUN 232323
TAFSPS
TAF
KSPS 232323Z 2400/2424 32023G33KT P6SM BKN040
      TEMPO 2400/2402 -RA OVC025
     FM240200 29010KT P6SM SCT150
     FM241600 29013KT P6SM SCT150=



000
FTUS44 KOUN 232323
TAFOKC
TAF
KOKC 232323Z 2400/2424 33025G33KT P6SM OVC025
      TEMPO 2400/2402 6SM -RA BR
     FM240200 31019G25KT P6SM BKN100
     FM240500 29013KT P6SM SCT150
     FM241600 29016G23KT P6SM SKC=



000
FTUS44 KOUN 232323
TAFPNC
TAF
KPNC 232323Z 2400/2424 33024G32KT P6SM VCSH OVC025
      TEMPO 2400/2402 6SM -RA BR OVC015
     FM240200 31016G23KT P6SM BKN070
     FM240500 29010KT P6SM SCT150
     FM241600 29015G22KT P6SM SKC=



000
FTUS44 KOUN 232323
TAFWWR
TAF
KWWR 232323Z 2400/2424 33013G19KT P6SM BKN100
     FM240200 31011KT P6SM SCT150
     FM241600 29014G21KT P6SM SKC=



000
FTUS44 KOUN 232323
TAFOKC
TAF
KOKC 232323Z 2400/2424 33025G33KT P6SM OVC025
      TEMPO 2400/2402 6SM -RA BR
     FM240200 31019G25KT P6SM BKN100
     FM240500 29013KT P6SM SCT150
     FM241600 29016G23KT P6SM SKC=



000
FTUS44 KOUN 232323
TAFHBR
TAF
KHBR 232323Z 2400/2424 34024G35KT P6SM BKN100
      TEMPO 2400/2402 -RA OVC040
     FM240200 31011KT P6SM SCT150
     FM241600 29015G23KT P6SM SKC=



000
FTUS44 KOUN 232323
TAFHBR
TAF
KHBR 232323Z 2400/2424 34024G35KT P6SM BKN100
      TEMPO 2400/2402 -RA OVC040
     FM240200 31011KT P6SM SCT150
     FM241600 29015G23KT P6SM SKC=



000
FTUS44 KOUN 232323
TAFGAG
TAF
KGAG 232323Z 2400/2424 34013G19KT P6SM BKN100
     FM240200 30011KT P6SM SCT150
     FM241600 29014G20KT P6SM SKC=



000
FTUS44 KOUN 232323
TAFSPS
TAF
KSPS 232323Z 2400/2424 32023G33KT P6SM BKN040
      TEMPO 2400/2402 -RA OVC025
     FM240200 29010KT P6SM SCT150
     FM241600 29013KT P6SM SCT150=



000
FTUS44 KOUN 232323
TAFWWR
TAF
KWWR 232323Z 2400/2424 33013G19KT P6SM BKN100
     FM240200 31011KT P6SM SCT150
     FM241600 29014G21KT P6SM SKC=



000
FTUS44 KOUN 232323
TAFLAW
TAF
KLAW 232323Z 2400/2424 33022G34KT P6SM BKN040
      TEMPO 2400/2402 -RA OVC025
     FM240200 30010KT P6SM SCT150
     FM241600 29014KT P6SM SKC=



000
FTUS44 KOUN 232323
TAFPNC
TAF
KPNC 232323Z 2400/2424 33024G32KT P6SM VCSH OVC025
      TEMPO 2400/2402 6SM -RA BR OVC015
     FM240200 31016G23KT P6SM BKN070
     FM240500 29010KT P6SM SCT150
     FM241600 29015G22KT P6SM SKC=



000
FTUS44 KOUN 231733
TAFLAW
TAF
KLAW 231733Z 2318/2418 33026G37KT P6SM BKN040
     FM240000 31016G25KT P6SM BKN100
     FM240200 29010KT P6SM FEW150=



000
FTUS44 KOUN 231733
TAFGAG
TAF
KGAG 231733Z 2318/2418 35028G38KT P6SM OVC050
     FM240000 30011KT P6SM SCT150
     FM241600 30016G22KT P6SM SKC=



000
FTUS44 KOUN 231733
TAFHBR
TAF
KHBR 231733Z 2318/2418 33028G40KT P6SM BKN035
     FM240000 31016G25KT P6SM SCT100
     FM240200 30010KT P6SM FEW150
     FM241600 29015G22KT P6SM SKC=



000
FTUS44 KOUN 231733
TAFOUN
TAF
KOUN 231733Z 2318/2418 24016G25KT P6SM BKN025
     FM232000 32026G36KT P6SM BKN040
     FM232200 32028G38KT P6SM VCSH OVC040
     FM240100 31019G25KT P6SM BKN100
     FM240400 29013KT P6SM FEW180
     FM241600 29016G22KT P6SM SKC=



000
FTUS44 KOUN 231733
TAFSPS
TAF
KSPS 231733Z 2318/2418 32028G39KT P6SM BKN050
     FM240000 31016G25KT P6SM BKN100
     FM240200 29010KT P6SM FEW150=



000
FTUS44 KOUN 231733
TAFOKC
TAF
KOKC 231733Z 2318/2418 24016G25KT P6SM BKN025
     FM232000 32026G36KT P6SM BKN040
     FM232200 32028G38KT P6SM VCSH OVC040
     FM240100 31019G25KT P6SM BKN100
     FM240400 29013KT P6SM FEW180
     FM241600 29016G22KT P6SM SKC=



000
FTUS44 KOUN 231733
TAFPNC
TAF
KPNC 231733Z 2318/2418 30012KT P6SM OVC025
     FM232000 33024G34KT P6SM VCSH OVC035
      TEMPO 2322/2324 5SM -RA BR OVC025
     FM240100 31016G23KT P6SM BKN080
     FM240400 29010KT P6SM FEW180
     FM241600 29015G22KT P6SM SKC=



000
FTUS44 KOUN 231733
TAFWWR
TAF
KWWR 231733Z 2318/2418 35028G38KT P6SM FEW018 OVC040
     FM240000 30011KT P6SM SCT150
     FM241600 30016G22KT P6SM SKC=



000
FTUS44 KOUN 231733
TAFLAW
TAF
KLAW 231733Z 2318/2418 33026G37KT P6SM BKN040
     FM240000 31016G25KT P6SM BKN100
     FM240200 29010KT P6SM FEW150=



000
FTUS44 KOUN 231733
TAFHBR
TAF
KHBR 231733Z 2318/2418 33028G40KT P6SM BKN035
     FM240000 31016G25KT P6SM SCT100
     FM240200 30010KT P6SM FEW150
     FM241600 29015G22KT P6SM SKC=



000
FTUS44 KOUN 231733
TAFOUN
TAF
KOUN 231733Z 2318/2418 24016G25KT P6SM BKN025
     FM232000 32026G36KT P6SM BKN040
     FM232200 32028G38KT P6SM VCSH OVC040
     FM240100 31019G25KT P6SM BKN100
     FM240400 29013KT P6SM FEW180
     FM241600 29016G22KT P6SM SKC=



000
FTUS44 KOUN 231733
TAFGAG
TAF
KGAG 231733Z 2318/2418 35028G38KT P6SM OVC050
     FM240000 30011KT P6SM SCT150
     FM241600 30016G22KT P6SM SKC=



000
FTUS44 KOUN 231733
TAFWWR
TAF
KWWR 231733Z 2318/2418 35028G38KT P6SM FEW018 OVC040
     FM240000 30011KT P6SM SCT150
     FM241600 30016G22KT P6SM SKC=



000
FTUS44 KOUN 231733
TAFOKC
TAF
KOKC 231733Z 2318/2418 24016G25KT P6SM BKN025
     FM232000 32026G36KT P6SM BKN040
     FM232200 32028G38KT P6SM VCSH OVC040
     FM240100 31019G25KT P6SM BKN100
     FM240400 29013KT P6SM FEW180
     FM241600 29016G22KT P6SM SKC=



000
FTUS44 KOUN 231733
TAFSPS
TAF
KSPS 231733Z 2318/2418 32028G39KT P6SM BKN050
     FM240000 31016G25KT P6SM BKN100
     FM240200 29010KT P6SM FEW150=



000
FTUS44 KOUN 231733
TAFPNC
TAF
KPNC 231733Z 2318/2418 30012KT P6SM OVC025
     FM232000 33024G34KT P6SM VCSH OVC035
      TEMPO 2322/2324 5SM -RA BR OVC025
     FM240100 31016G23KT P6SM BKN080
     FM240400 29010KT P6SM FEW180
     FM241600 29015G22KT P6SM SKC=



000
FTUS44 KOUN 231646 AAB
TAFHBR
TAF AMD
KHBR 231646Z 2317/2412 29015G24KT P6SM SKC
     FM231800 32027G38KT P6SM SCT010
     FM240000 31015KT P6SM SCT100=



000
FTUS44 KOUN 231646 AAB
TAFHBR
TAF AMD
KHBR 231646Z 2317/2412 29015G24KT P6SM SKC
     FM231800 32027G38KT P6SM SCT010
     FM240000 31015KT P6SM SCT100=



000
FTUS44 KOUN 231644 AAA
TAFWWR
TAF AMD
KWWR 231644Z 2317/2412 32020G30KT P6SM BKN012
      TEMPO 2317/2318 SCT012
     FM231800 33028G38KT P6SM BKN020
     FM240000 33015KT P6SM SCT100=



000
FTUS44 KOUN 231644 AAA
TAFWWR
TAF AMD
KWWR 231644Z 2317/2412 32020G30KT P6SM BKN012
      TEMPO 2317/2318 SCT012
     FM231800 33028G38KT P6SM BKN020
     FM240000 33015KT P6SM SCT100=



000
FTUS44 KOUN 231643 AAA
TAFGAG
TAF AMD
KGAG 231643Z 2317/2412 34020G30KT P6SM BKN012
      TEMPO 2317/2318 SCT012
     FM231800 33028G38KT P6SM BKN020
     FM240000 33015KT P6SM SCT100=



000
FTUS44 KOUN 231640 AAC
TAFOUN
TAF AMD
KOUN 231640Z 2317/2412 19015G22KT P6SM BKN015
     FM231800 23016G24KT P6SM BKN100
     FM232000 32025G35KT P6SM SCT030
     FM240200 30016G24KT P6SM FEW030=



000
FTUS44 KOUN 231640 AAC
TAFOUN
TAF AMD
KOUN 231640Z 2317/2412 19015G22KT P6SM BKN015
     FM231800 23016G24KT P6SM BKN100
     FM232000 32025G35KT P6SM SCT030
     FM240200 30016G24KT P6SM FEW030=



000
FTUS44 KOUN 231639 AAB
TAFOKC
TAF AMD
KOKC 231639Z 2317/2412 18014G22KT P6SM BKN015
     FM231800 21016G25KT P6SM SCT020
     FM232000 32028G38KT P6SM SCT030
     FM240200 30019G25KT P6SM FEW030=



000
FTUS44 KOUN 231505 AAA
TAFSPS
TAF AMD
KSPS 231505Z 2315/2412 20015G24KT P6SM SCT010 BKN100
     FM231800 23014G25KT P6SM SCT015
     FM232100 32025G35KT P6SM SCT030
     FM240100 30013KT P6SM SCT100=



000
FTUS44 KOUN 231505 AAA
TAFSPS
TAF AMD
KSPS 231505Z 2315/2412 20015G24KT P6SM SCT010 BKN100
     FM231800 23014G25KT P6SM SCT015
     FM232100 32025G35KT P6SM SCT030
     FM240100 30013KT P6SM SCT100=



000
FTUS44 KOUN 231504 AAA
TAFLAW
TAF AMD
KLAW 231504Z 2315/2412 18012G20KT P6SM SCT010 BKN100
     FM231800 24014G25KT P6SM FEW015
     FM232100 32025G35KT P6SM SCT030
     FM240000 30013KT P6SM SCT100=



000
FTUS44 KOUN 231504 AAA
TAFLAW
TAF AMD
KLAW 231504Z 2315/2412 18012G20KT P6SM SCT010 BKN100
     FM231800 24014G25KT P6SM FEW015
     FM232100 32025G35KT P6SM SCT030
     FM240000 30013KT P6SM SCT100=



000
FTUS44 KOUN 231502 AAA
TAFHBR
TAF AMD
KHBR 231502Z 2315/2412 24014G24KT P6SM BKN008
      TEMPO 2315/2316 BKN004
     FM231700 33028G40KT P6SM BKN030
     FM240000 31015KT P6SM SCT100=



000
FTUS44 KOUN 231502 AAA
TAFHBR
TAF AMD
KHBR 231502Z 2315/2412 24014G24KT P6SM BKN008
      TEMPO 2315/2316 BKN004
     FM231700 33028G40KT P6SM BKN030
     FM240000 31015KT P6SM SCT100=



000
FTUS44 KOUN 231500 AAA
TAFPNC
TAF AMD
KPNC 231500Z 2315/2412 17012KT P6SM BKN012
     FM231600 23014KT P6SM OVC015
     FM232000 33024G34KT P6SM BKN025
      TEMPO 2320/2324 5SM -RA BR OVC012
     FM240100 31013KT P6SM SCT030 SCT150=



000
FTUS44 KOUN 231456 AAB
TAFOUN
TAF AMD
KOUN 231456Z 2315/2412 17015G24KT P6SM SCT006
      TEMPO 2315/2316 BKN012
     FM231700 23016G24KT P6SM BKN100
     FM232000 32025G35KT P6SM SCT030
     FM240200 30016G24KT P6SM FEW030=



000
FTUS44 KOUN 231456 AAB
TAFOUN
TAF AMD
KOUN 231456Z 2315/2412 17015G24KT P6SM SCT006
      TEMPO 2315/2316 BKN012
     FM231700 23016G24KT P6SM BKN100
     FM232000 32025G35KT P6SM SCT030
     FM240200 30016G24KT P6SM FEW030=



000
FTUS44 KOUN 231454 AAA
TAFOKC
TAF AMD
KOKC 231454Z 2315/2412 17012G20KT P6SM SCT008
      TEMPO 2315/2316 BKN007
     FM231700 23016G24KT P6SM BKN100
     FM232000 32028G38KT P6SM SCT030
     FM240200 30019G25KT P6SM FEW030=



000
FTUS44 KOUN 231454 AAA
TAFOKC
TAF AMD
KOKC 231454Z 2315/2412 17012G20KT P6SM SCT008
      TEMPO 2315/2316 BKN007
     FM231700 23016G24KT P6SM BKN100
     FM232000 32028G38KT P6SM SCT030
     FM240200 30019G25KT P6SM FEW030=



000
FTUS44 KOUN 231140
TAFPNC
TAF
KPNC 231140Z 2312/2412 16014KT P6SM OVC012
     FM231600 23014KT P6SM OVC015
     FM232000 33024G34KT P6SM BKN025
      TEMPO 2320/2324 5SM -RA BR OVC012
     FM240100 31013KT P6SM SCT030 SCT150=



000
FTUS44 KOUN 231140
TAFOUN
TAF
KOUN 231140Z 2312/2412 16015KT P6SM OVC006
     FM231400 18015G24KT P6SM SCT008
      TEMPO 2314/2316 BKN008
     FM231700 23016G24KT P6SM BKN100
     FM232000 32025G35KT P6SM OVC030
     FM240100 30016KT P6SM SCT030=



000
FTUS44 KOUN 231140
TAFLAW
TAF
KLAW 231140Z 2312/2412 18012KT 6SM BR SCT005
      TEMPO 2312/2314 1/2SM FG OVC005
     FM231400 23015G21KT P6SM SCT010 BKN100
     FM231800 32025G35KT P6SM SCT030
     FM240000 30013KT P6SM SCT100=



000
FTUS44 KOUN 231140
TAFOKC
TAF
KOKC 231140Z 2312/2412 16015KT P6SM OVC004
     FM231400 18016G24KT P6SM SCT008
      TEMPO 2314/2316 BKN008
     FM231700 23016G24KT P6SM BKN100
     FM232000 32028G38KT P6SM OVC030 PROB30 2321/2324 -SHRA
     FM240100 30019KT P6SM SCT030=



000
FTUS44 KOUN 231140
TAFWWR
TAF
KWWR 231140Z 2312/2412 25014KT P6SM SCT010
     FM231600 34028G39KT P6SM BKN030
     FM240000 33015KT P6SM SCT100=



000
FTUS44 KOUN 231140
TAFGAG
TAF
KGAG 231140Z 2312/2412 25015KT P6SM SCT010
     FM231600 34028G39KT P6SM BKN030
     FM240000 33015KT P6SM SCT100=



000
FTUS44 KOUN 231140
TAFHBR
TAF
KHBR 231140Z 2312/2412 20016KT P6SM OVC005
      TEMPO 2312/2314 4SM BR
     FM231400 24018G25KT P6SM SCT010 BKN100
     FM231700 33028G40KT P6SM BKN030
     FM240000 31015KT P6SM SCT100=



000
FTUS44 KOUN 231140
TAFHBR
TAF
KHBR 231140Z 2312/2412 20016KT P6SM OVC005
      TEMPO 2312/2314 4SM BR
     FM231400 24018G25KT P6SM SCT010 BKN100
     FM231700 33028G40KT P6SM BKN030
     FM240000 31015KT P6SM SCT100=



000
FTUS44 KOUN 231140
TAFLAW
TAF
KLAW 231140Z 2312/2412 18012KT 6SM BR SCT005
      TEMPO 2312/2314 1/2SM FG OVC005
     FM231400 23015G21KT P6SM SCT010 BKN100
     FM231800 32025G35KT P6SM SCT030
     FM240000 30013KT P6SM SCT100=



000
FTUS44 KOUN 231140
TAFSPS
TAF
KSPS 231140Z 2312/2412 21014KT P6SM SCT005
     FM231500 24017G24KT P6SM SCT010 BKN100
     FM232000 32025G35KT P6SM SCT030
     FM240100 30013KT P6SM SCT100=



000
FTUS44 KOUN 230531
TAFGAG
TAF
KGAG 230531Z 2306/2406 18018G27KT P6SM OVC010
     FM230900 20011KT 4SM BR OVC008
      TEMPO 2309/2312 1SM BR OVC004
     FM231200 24010KT P6SM SCT010
     FM231500 33016G25KT P6SM SCT030
     FM231800 34023G32KT P6SM BKN030 PROB30 2320/2324 5SM -RA BR
      OVC015
     FM240200 33012KT P6SM SCT150=



000
FTUS44 KOUN 230531
TAFWWR
TAF
KWWR 230531Z 2306/2406 18018G27KT P6SM OVC010
     FM230900 21011KT 4SM BR OVC008
      TEMPO 2309/2312 1SM BR OVC004
     FM231200 24010KT P6SM SCT010
     FM231500 33016G25KT P6SM SCT030
     FM231800 34023G32KT P6SM BKN030 PROB30 2320/2324 5SM -RA BR
      OVC015
     FM240200 33012KT P6SM SCT150=



000
FTUS44 KOUN 230531
TAFSPS
TAF
KSPS 230531Z 2306/2406 18007KT 1SM BR OVC004
      TEMPO 2306/2310 1/4SM FG VV002
     FM231100 18010KT 5SM BR OVC006
     FM231500 24014KT P6SM SKC
     FM232000 33022G31KT P6SM BKN030
     FM240300 30010KT P6SM SKC=



000
FTUS44 KOUN 230531
TAFLAW
TAF
KLAW 230531Z 2306/2406 17011KT 1SM BR OVC004
      TEMPO 2306/2310 1/4SM FG VV002
     FM231100 18010KT 4SM BR OVC006
     FM231500 23013KT P6SM SCT015
     FM231900 33016G24KT P6SM SCT030
     FM232100 34022G31KT P6SM BKN030
     FM240300 32010KT P6SM SKC=



000
FTUS44 KOUN 230531
TAFOUN
TAF
KOUN 230531Z 2306/2406 14014G20KT P6SM OVC008
     FM230800 17012KT 3SM BR OVC004
      TEMPO 2309/2313 1/2SM FG VV002
     FM231400 18012KT 5SM BR OVC008
     FM231800 23014KT P6SM BKN015
     FM232100 32020G30KT P6SM OVC030
     FM240300 32016G25KT P6SM SCT030=



000
FTUS44 KOUN 230531
TAFHBR
TAF
KHBR 230531Z 2306/2406 18013KT 3SM BR OVC004
      TEMPO 2306/2310 1/2SM FG VV002
     FM231300 23014KT P6SM SCT015
     FM231700 34020G30KT P6SM SCT030
     FM232000 34025G34KT P6SM BKN030
     FM240200 30010KT P6SM SKC=



000
FTUS44 KOUN 230531
TAFPNC
TAF
KPNC 230531Z 2306/2406 15012KT P6SM BKN012
     FM230900 16012KT 3SM BR OVC006
     FM231400 16010KT 5SM BR OVC008
     FM232000 33017G26KT P6SM -RA BKN015 OVC030
      TEMPO 2321/2401 4SM -RA BR OVC012
     FM240300 31013KT P6SM SCT030 SCT150=



000
FTUS44 KOUN 230531
TAFOKC
TAF
KOKC 230531Z 2306/2406 15014G20KT P6SM OVC008
     FM230800 17012KT 3SM BR OVC004
      TEMPO 2309/2313 1/2SM FG VV002
     FM231400 18012KT 5SM BR OVC008
     FM231800 23014KT P6SM BKN015
     FM232100 32021G30KT P6SM OVC030
     FM240300 32017G25KT P6SM SCT030=



000
FTUS44 KOUN 230531
TAFOKC
TAF
KOKC 230531Z 2306/2406 15014G20KT P6SM OVC008
     FM230800 17012KT 3SM BR OVC004
      TEMPO 2309/2313 1/2SM FG VV002
     FM231400 18012KT 5SM BR OVC008
     FM231800 23014KT P6SM BKN015
     FM232100 32021G30KT P6SM OVC030
     FM240300 32017G25KT P6SM SCT030=



000
FTUS44 KOUN 230531
TAFLAW
TAF
KLAW 230531Z 2306/2406 17011KT 1SM BR OVC004
      TEMPO 2306/2310 1/4SM FG VV002
     FM231100 18010KT 4SM BR OVC006
     FM231500 23013KT P6SM SCT015
     FM231900 33016G24KT P6SM SCT030
     FM232100 34022G31KT P6SM BKN030
     FM240300 32010KT P6SM SKC=



000
FTUS44 KOUN 230531
TAFSPS
TAF
KSPS 230531Z 2306/2406 18007KT 1SM BR OVC004
      TEMPO 2306/2310 1/4SM FG VV002
     FM231100 18010KT 5SM BR OVC006
     FM231500 24014KT P6SM SKC
     FM232000 33022G31KT P6SM BKN030
     FM240300 30010KT P6SM SKC=



000
FTUS44 KOUN 230531
TAFGAG
TAF
KGAG 230531Z 2306/2406 18018G27KT P6SM OVC010
     FM230900 20011KT 4SM BR OVC008
      TEMPO 2309/2312 1SM BR OVC004
     FM231200 24010KT P6SM SCT010
     FM231500 33016G25KT P6SM SCT030
     FM231800 34023G32KT P6SM BKN030 PROB30 2320/2324 5SM -RA BR
      OVC015
     FM240200 33012KT P6SM SCT150=



000
FTUS44 KOUN 230531
TAFOUN
TAF
KOUN 230531Z 2306/2406 14014G20KT P6SM OVC008
     FM230800 17012KT 3SM BR OVC004
      TEMPO 2309/2313 1/2SM FG VV002
     FM231400 18012KT 5SM BR OVC008
     FM231800 23014KT P6SM BKN015
     FM232100 32020G30KT P6SM OVC030
     FM240300 32016G25KT P6SM SCT030=



000
FTUS44 KOUN 230531
TAFHBR
TAF
KHBR 230531Z 2306/2406 18013KT 3SM BR OVC004
      TEMPO 2306/2310 1/2SM FG VV002
     FM231300 23014KT P6SM SCT015
     FM231700 34020G30KT P6SM SCT030
     FM232000 34025G34KT P6SM BKN030
     FM240200 30010KT P6SM SKC=



000
FTUS44 KOUN 230531
TAFWWR
TAF
KWWR 230531Z 2306/2406 18018G27KT P6SM OVC010
     FM230900 21011KT 4SM BR OVC008
      TEMPO 2309/2312 1SM BR OVC004
     FM231200 24010KT P6SM SCT010
     FM231500 33016G25KT P6SM SCT030
     FM231800 34023G32KT P6SM BKN030 PROB30 2320/2324 5SM -RA BR
      OVC015
     FM240200 33012KT P6SM SCT150=



000
FTUS44 KOUN 230531
TAFPNC
TAF
KPNC 230531Z 2306/2406 15012KT P6SM BKN012
     FM230900 16012KT 3SM BR OVC006
     FM231400 16010KT 5SM BR OVC008
     FM232000 33017G26KT P6SM -RA BKN015 OVC030
      TEMPO 2321/2401 4SM -RA BR OVC012
     FM240300 31013KT P6SM SCT030 SCT150=



000
FTUS44 KOUN 230435 AAB
TAFSPS
TAF AMD
KSPS 230435Z 2305/2324 18007KT 2SM BR OVC006
      TEMPO 2305/2309 1/2SM FG VV002
     FM231000 18010KT 6SM BR SCT012
     FM231500 24014KT P6SM SKC
     FM232000 33020G30KT P6SM SCT030=



000
FTUS44 KOUN 230435 AAB
TAFSPS
TAF AMD
KSPS 230435Z 2305/2324 18007KT 2SM BR OVC006
      TEMPO 2305/2309 1/2SM FG VV002
     FM231000 18010KT 6SM BR SCT012
     FM231500 24014KT P6SM SKC
     FM232000 33020G30KT P6SM SCT030=



000
FTUS44 KOUN 230434 AAB
TAFLAW
TAF AMD
KLAW 230434Z 2305/2324 17008KT 3SM BR OVC006
      TEMPO 2305/2309 1SM BR VV002
     FM231000 18010KT 5SM BR BKN010
     FM231500 23013KT P6SM SCT015
     FM231900 33016G24KT P6SM SCT030
     FM232100 34022G31KT P6SM BKN030=



000
FTUS44 KOUN 230434 AAB
TAFLAW
TAF AMD
KLAW 230434Z 2305/2324 17008KT 3SM BR OVC006
      TEMPO 2305/2309 1SM BR VV002
     FM231000 18010KT 5SM BR BKN010
     FM231500 23013KT P6SM SCT015
     FM231900 33016G24KT P6SM SCT030
     FM232100 34022G31KT P6SM BKN030=



000
FTUS44 KOUN 230433 AAB
TAFHBR
TAF AMD
KHBR 230433Z 2305/2324 17014KT 3SM BR OVC003
      TEMPO 2305/2309 1SM BR VV002
     FM231200 23014KT 5SM BR SCT015
     FM231700 34020G30KT P6SM SCT030
     FM232000 34025G34KT P6SM BKN030=



000
FTUS44 KOUN 230433 AAB
TAFHBR
TAF AMD
KHBR 230433Z 2305/2324 17014KT 3SM BR OVC003
      TEMPO 2305/2309 1SM BR VV002
     FM231200 23014KT 5SM BR SCT015
     FM231700 34020G30KT P6SM SCT030
     FM232000 34025G34KT P6SM BKN030=



000
FTUS44 KOUN 230320 AAA
TAFWWR
TAF AMD
KWWR 230320Z 2303/2324 18019G27KT P6SM OVC008
     FM230600 18014G20KT 4SM BR OVC008
     FM230900 21011KT 3SM BR OVC006
     FM231400 33012G22KT P6SM SCT030 BKN100
     FM231700 34022G31KT P6SM BKN030=



000
FTUS44 KOUN 230320 AAA
TAFWWR
TAF AMD
KWWR 230320Z 2303/2324 18019G27KT P6SM OVC008
     FM230600 18014G20KT 4SM BR OVC008
     FM230900 21011KT 3SM BR OVC006
     FM231400 33012G22KT P6SM SCT030 BKN100
     FM231700 34022G31KT P6SM BKN030=



000
FTUS44 KOUN 230319 AAA
TAFGAG
TAF AMD
KGAG 230319Z 2303/2324 18018G28KT P6SM BKN009
     FM230600 18015G22KT 4SM BR OVC008
     FM230900 21009KT 3SM BR OVC006
     FM231400 34012G22KT P6SM SCT030 BKN100
     FM231700 34022G31KT P6SM BKN030=



000
FTUS44 KOUN 230318 AAA
TAFOKC
TAF AMD
KOKC 230318Z 2303/2324 15014G20KT P6SM OVC012
     FM230700 17012KT 4SM BR OVC006
     FM231400 18012KT 5SM BR OVC008
     FM231800 23014KT P6SM BKN015
     FM232000 34021G30KT P6SM OVC030=



000
FTUS44 KOUN 230317 AAB
TAFOUN
TAF AMD
KOUN 230317Z 2303/2324 15014G20KT P6SM OVC008
     FM230700 17012KT 4SM BR OVC004
     FM231400 18012KT 5SM BR OVC008
     FM231800 23014KT P6SM BKN015
     FM232100 33020G30KT P6SM OVC030=



000
FTUS44 KOUN 230317 AAB
TAFOUN
TAF AMD
KOUN 230317Z 2303/2324 15014G20KT P6SM OVC008
     FM230700 17012KT 4SM BR OVC004
     FM231400 18012KT 5SM BR OVC008
     FM231800 23014KT P6SM BKN015
     FM232100 33020G30KT P6SM OVC030=



000
FTUS44 KOUN 230315 AAA
TAFSPS
TAF AMD
KSPS 230315Z 2303/2324 17009KT P6SM SCT008 OVC080
     FM230700 18008KT 4SM BR OVC008
     FM230900 18010KT 6SM BR SCT012
     FM231500 24014KT P6SM SKC
     FM232000 33020G30KT P6SM SCT030=



000
FTUS44 KOUN 230315 AAA
TAFSPS
TAF AMD
KSPS 230315Z 2303/2324 17009KT P6SM SCT008 OVC080
     FM230700 18008KT 4SM BR OVC008
     FM230900 18010KT 6SM BR SCT012
     FM231500 24014KT P6SM SKC
     FM232000 33020G30KT P6SM SCT030=



000
FTUS44 KOUN 230314 AAA
TAFLAW
TAF AMD
KLAW 230314Z 2303/2324 16010KT P6SM SCT006 OVC080
     FM230700 17011KT 4SM BR OVC006
     FM231000 18010KT 5SM BR BKN010
     FM231500 23013KT P6SM SCT015
     FM231900 33016G24KT P6SM SCT030
     FM232100 34022G31KT P6SM BKN030=



000
FTUS44 KOUN 230314 AAA
TAFLAW
TAF AMD
KLAW 230314Z 2303/2324 16010KT P6SM SCT006 OVC080
     FM230700 17011KT 4SM BR OVC006
     FM231000 18010KT 5SM BR BKN010
     FM231500 23013KT P6SM SCT015
     FM231900 33016G24KT P6SM SCT030
     FM232100 34022G31KT P6SM BKN030=



000
FTUS44 KOUN 230313 AAA
TAFHBR
TAF AMD
KHBR 230313Z 2303/2324 17014KT P6SM SCT008 OVC080
     FM230700 18013KT 4SM BR OVC006
     FM231200 23014KT 5SM BR SCT015
     FM231700 34020G30KT P6SM SCT030
     FM232000 34025G34KT P6SM BKN030=



000
FTUS44 KOUN 230313 AAA
TAFHBR
TAF AMD
KHBR 230313Z 2303/2324 17014KT P6SM SCT008 OVC080
     FM230700 18013KT 4SM BR OVC006
     FM231200 23014KT 5SM BR SCT015
     FM231700 34020G30KT P6SM SCT030
     FM232000 34025G34KT P6SM BKN030=



000
FTUS44 KOUN 230310 AAA
TAFPNC
TAF AMD
KPNC 230310Z 2303/2324 15011KT P6SM SCT012 BKN060
     FM230600 16012KT 3SM BR OVC006
     FM231400 16010KT 5SM BR OVC008
     FM232000 33015G24KT P6SM OVC030=



000
FTUS44 KOUN 230310 AAA
TAFPNC
TAF AMD
KPNC 230310Z 2303/2324 15011KT P6SM SCT012 BKN060
     FM230600 16012KT 3SM BR OVC006
     FM231400 16010KT 5SM BR OVC008
     FM232000 33015G24KT P6SM OVC030=



000
FTUS44 KOUN 222326
TAFLAW
TAF
KLAW 222326Z 2300/2324 15015G24KT P6SM SCT008 OVC060
      TEMPO 2300/2302 4SM -RA BR OVC006
     FM230300 16011KT 3SM BR OVC006
     FM231000 18010KT 5SM BR BKN010
     FM231500 23013KT P6SM SCT015
     FM231900 33016G24KT P6SM SCT030
     FM232100 34022G31KT P6SM BKN030=



000
FTUS44 KOUN 222326
TAFPNC
TAF
KPNC 222326Z 2300/2324 16013G18KT P6SM SCT012 BKN060
      TEMPO 2300/2303 4SM BR OVC010
     FM230300 16013KT 2SM BR OVC004
     FM231400 16010KT 3SM BR OVC008
     FM232000 33015G24KT P6SM OVC030=



000
FTUS44 KOUN 222326
TAFOUN
TAF
KOUN 222326Z 2300/2324 15014G20KT P6SM SCT008 OVC060
      TEMPO 2300/2303 4SM -RA BR OVC008
     FM230400 17012KT 2SM BR OVC004
     FM231400 18012KT 5SM BR OVC008
     FM231800 23014KT P6SM BKN015
     FM232100 33020G30KT P6SM OVC030=



000
FTUS44 KOUN 222326
TAFWWR
TAF
KWWR 222326Z 2300/2324 18019G28KT P6SM BKN012
     FM230300 18014G20KT 3SM BR OVC008
     FM230900 21011KT 2SM BR OVC006
     FM231400 33012G22KT P6SM SCT030 BKN100
     FM231700 34022G31KT P6SM BKN030=



000
FTUS44 KOUN 222326
TAFHBR
TAF
KHBR 222326Z 2300/2324 16018G27KT P6SM OVC008
     FM230300 18014KT 2SM BR OVC004
     FM231200 23014KT 4SM BR SCT015
     FM231700 34020G30KT P6SM SCT030
     FM232000 34025G34KT P6SM BKN030=



000
FTUS44 KOUN 222326
TAFOKC
TAF
KOKC 222326Z 2300/2324 17014G20KT P6SM SCT008 OVC060
      TEMPO 2303/2306 4SM BR OVC008
     FM230600 17012KT 2SM BR OVC006
     FM231400 18012KT 5SM BR OVC008
     FM231800 23014KT P6SM BKN015
     FM232000 34021G30KT P6SM OVC030=



000
FTUS44 KOUN 222326
TAFGAG
TAF
KGAG 222326Z 2300/2324 18018G28KT P6SM BKN012
     FM230300 18015G22KT 3SM BR OVC008
     FM230900 21009KT 2SM BR OVC006
     FM231400 34012G22KT P6SM SCT030 BKN100
     FM231700 34022G31KT P6SM BKN030=



000
FTUS44 KOUN 222326
TAFSPS
TAF
KSPS 222326Z 2300/2324 14011KT 5SM RA BR SCT010 OVC060
      TEMPO 2300/2302 VRB25KT 2SM TSRA BR OVC010CB
     FM230300 16012KT 3SM BR OVC010
     FM230900 18010KT 6SM BR SCT012
     FM231500 24014KT P6SM SKC
     FM232000 33020G30KT P6SM SCT030=



000
FTUS44 KOUN 222326
TAFPNC
TAF
KPNC 222326Z 2300/2324 16013G18KT P6SM SCT012 BKN060
      TEMPO 2300/2303 4SM BR OVC010
     FM230300 16013KT 2SM BR OVC004
     FM231400 16010KT 3SM BR OVC008
     FM232000 33015G24KT P6SM OVC030=



000
FTUS44 KOUN 222326
TAFHBR
TAF
KHBR 222326Z 2300/2324 16018G27KT P6SM OVC008
     FM230300 18014KT 2SM BR OVC004
     FM231200 23014KT 4SM BR SCT015
     FM231700 34020G30KT P6SM SCT030
     FM232000 34025G34KT P6SM BKN030=



000
FTUS44 KOUN 222326
TAFLAW
TAF
KLAW 222326Z 2300/2324 15015G24KT P6SM SCT008 OVC060
      TEMPO 2300/2302 4SM -RA BR OVC006
     FM230300 16011KT 3SM BR OVC006
     FM231000 18010KT 5SM BR BKN010
     FM231500 23013KT P6SM SCT015
     FM231900 33016G24KT P6SM SCT030
     FM232100 34022G31KT P6SM BKN030=



000
FTUS44 KOUN 222326
TAFGAG
TAF
KGAG 222326Z 2300/2324 18018G28KT P6SM BKN012
     FM230300 18015G22KT 3SM BR OVC008
     FM230900 21009KT 2SM BR OVC006
     FM231400 34012G22KT P6SM SCT030 BKN100
     FM231700 34022G31KT P6SM BKN030=



000
FTUS44 KOUN 222326
TAFSPS
TAF
KSPS 222326Z 2300/2324 14011KT 5SM RA BR SCT010 OVC060
      TEMPO 2300/2302 VRB25KT 2SM TSRA BR OVC010CB
     FM230300 16012KT 3SM BR OVC010
     FM230900 18010KT 6SM BR SCT012
     FM231500 24014KT P6SM SKC
     FM232000 33020G30KT P6SM SCT030=



000
FTUS44 KOUN 222326
TAFWWR
TAF
KWWR 222326Z 2300/2324 18019G28KT P6SM BKN012
     FM230300 18014G20KT 3SM BR OVC008
     FM230900 21011KT 2SM BR OVC006
     FM231400 33012G22KT P6SM SCT030 BKN100
     FM231700 34022G31KT P6SM BKN030=



000
FTUS44 KOUN 222326
TAFOKC
TAF
KOKC 222326Z 2300/2324 17014G20KT P6SM SCT008 OVC060
      TEMPO 2303/2306 4SM BR OVC008
     FM230600 17012KT 2SM BR OVC006
     FM231400 18012KT 5SM BR OVC008
     FM231800 23014KT P6SM BKN015
     FM232000 34021G30KT P6SM OVC030=



000
FTUS44 KOUN 222326
TAFOUN
TAF
KOUN 222326Z 2300/2324 15014G20KT P6SM SCT008 OVC060
      TEMPO 2300/2303 4SM -RA BR OVC008
     FM230400 17012KT 2SM BR OVC004
     FM231400 18012KT 5SM BR OVC008
     FM231800 23014KT P6SM BKN015
     FM232100 33020G30KT P6SM OVC030=



000
FTUS44 KOUN 222134 AAA
TAFSPS
TAF AMD
KSPS 222134Z 2222/2318 07011KT 6SM RA BR SCT010 OVC040
      TEMPO 2222/2301 VRB25KT 3SM TSRA BR OVC010CB
     FM230100 15012KT 2SM BR OVC010
     FM230900 18010KT 5SM BR BKN012=



000
FTUS44 KOUN 222132 AAA
TAFLAW
TAF AMD
KLAW 222132Z 2222/2318 12010KT 4SM RA BR SCT006 OVC040
      TEMPO 2222/2224 3SM -TSRA BR OVC006CB
     FM230100 15010KT 3SM BR OVC006
     FM230900 18010KT 5SM BR BKN012=



000
FTUS44 KOUN 222132 AAA
TAFLAW
TAF AMD
KLAW 222132Z 2222/2318 12010KT 4SM RA BR SCT006 OVC040
      TEMPO 2222/2224 3SM -TSRA BR OVC006CB
     FM230100 15010KT 3SM BR OVC006
     FM230900 18010KT 5SM BR BKN012=



000
FTUS44 KOUN 222130 AAA
TAFHBR
TAF AMD
KHBR 222130Z 2222/2318 16012KT P6SM SCT006 OVC050
      TEMPO 2222/2301 3SM -RA BR OVC006
     FM230100 18014KT 1SM BR OVC005
      TEMPO 2308/2312 1/4SM FG VV002
     FM231200 23014KT 4SM BR SCT015=



000
FTUS44 KOUN 222130 AAA
TAFHBR
TAF AMD
KHBR 222130Z 2222/2318 16012KT P6SM SCT006 OVC050
      TEMPO 2222/2301 3SM -RA BR OVC006
     FM230100 18014KT 1SM BR OVC005
      TEMPO 2308/2312 1/4SM FG VV002
     FM231200 23014KT 4SM BR SCT015=



000
FTUS44 KOUN 222129 AAA
TAFPNC
TAF AMD
KPNC 222129Z 2221/2318 17012KT P6SM OVC040
     FM230000 16012KT 4SM BR OVC006
     FM230400 15012KT 1SM BR OVC004=



000
FTUS44 KOUN 222129 AAA
TAFPNC
TAF AMD
KPNC 222129Z 2221/2318 17012KT P6SM OVC040
     FM230000 16012KT 4SM BR OVC006
     FM230400 15012KT 1SM BR OVC004=



000
FTUS44 KOUN 222127 AAA
TAFOKC
TAF AMD
KOKC 222127Z 2221/2318 16014KT 4SM -RA BR SCT010 OVC050
      TEMPO 2221/2223 2SM -RA BR OVC010
     FM222300 18013KT 5SM BR OVC006
     FM230400 17012KT 1SM BR OVC004=



000
FTUS44 KOUN 222127 AAA
TAFOKC
TAF AMD
KOKC 222127Z 2221/2318 16014KT 4SM -RA BR SCT010 OVC050
      TEMPO 2221/2223 2SM -RA BR OVC010
     FM222300 18013KT 5SM BR OVC006
     FM230400 17012KT 1SM BR OVC004=



000
FTUS44 KOUN 221733
TAFOUN
TAF
KOUN 221733Z 2218/2318 14014KT 5SM -RA BR BKN060
      TEMPO 2218/2220 4SM -TSRA BR BKN050CB
     FM222000 15014KT 4SM -SHRA BR OVC020
      TEMPO 2220/2222 2SM -RA BR OVC015
     FM230400 17012KT 1SM BR OVC004=



000
FTUS44 KOUN 221733
TAFOKC
TAF
KOKC 221733Z 2218/2318 14014KT 5SM -RA BR BKN060
      TEMPO 2218/2220 4SM -TSRA BKN050CB
     FM222000 16014KT 4SM -SHRA BR OVC010
      TEMPO 2220/2222 2SM -RA BR OVC008
     FM222200 18013KT 5SM BR OVC006
     FM230400 17012KT 1SM BR OVC004=



000
FTUS44 KOUN 221733
TAFLAW
TAF
KLAW 221733Z 2218/2318 12010KT 5SM -TSRA BR SCT006 OVC025CB
     FM222200 16012KT 4SM BR OVC020
     FM230200 15010KT 3SM BR OVC006
     FM230900 18010KT 5SM BR BKN012=



000
FTUS44 KOUN 221733
TAFHBR
TAF
KHBR 221733Z 2218/2318 19012KT 4SM BR OVC006
      TEMPO 2218/2221 1/2SM TSRA FG VV002 OVC010CB
     FM230100 18014KT 1SM BR OVC005
      TEMPO 2308/2312 1/4SM FG VV002
     FM231200 23014KT 4SM BR SCT015=



000
FTUS44 KOUN 221733
TAFGAG
TAF
KGAG 221733Z 2218/2318 17013KT P6SM SCT010
      TEMPO 2218/2220 6SM BR BKN005
     FM230100 19013KT 4SM BR OVC004
     FM230900 21014KT P6SM SCT250
     FM231400 33012G22KT P6SM BKN100=



000
FTUS44 KOUN 221733
TAFPNC
TAF
KPNC 221733Z 2218/2318 17012KT P6SM OVC040
      TEMPO 2219/2221 5SM BR OVC020
     FM222100 16012KT 4SM BR OVC006
     FM230400 15012KT 1SM BR OVC004=



000
FTUS44 KOUN 221733
TAFWWR
TAF
KWWR 221733Z 2218/2318 18013KT P6SM SCT010
      TEMPO 2218/2220 6SM BR BKN005
     FM230100 19013KT 4SM BR OVC004
     FM230900 21014KT P6SM SCT250
     FM231500 30012G22KT P6SM BKN100=



000
FTUS44 KOUN 221733
TAFSPS
TAF
KSPS 221733Z 2218/2318 13011KT P6SM VCTS OVC010CB
      TEMPO 2218/2222 4SM TSRA BKN010CB
     FM222300 14012KT 4SM -SHRA BR OVC012
     FM230100 15012KT 2SM BR OVC010
     FM230900 18010KT 5SM BR BKN012=



000
FTUS44 KOUN 221733
TAFHBR
TAF
KHBR 221733Z 2218/2318 19012KT 4SM BR OVC006
      TEMPO 2218/2221 1/2SM TSRA FG VV002 OVC010CB
     FM230100 18014KT 1SM BR OVC005
      TEMPO 2308/2312 1/4SM FG VV002
     FM231200 23014KT 4SM BR SCT015=



000
FTUS44 KOUN 221733
TAFPNC
TAF
KPNC 221733Z 2218/2318 17012KT P6SM OVC040
      TEMPO 2219/2221 5SM BR OVC020
     FM222100 16012KT 4SM BR OVC006
     FM230400 15012KT 1SM BR OVC004=



000
FTUS44 KOUN 221733
TAFGAG
TAF
KGAG 221733Z 2218/2318 17013KT P6SM SCT010
      TEMPO 2218/2220 6SM BR BKN005
     FM230100 19013KT 4SM BR OVC004
     FM230900 21014KT P6SM SCT250
     FM231400 33012G22KT P6SM BKN100=



000
FTUS44 KOUN 221733
TAFWWR
TAF
KWWR 221733Z 2218/2318 18013KT P6SM SCT010
      TEMPO 2218/2220 6SM BR BKN005
     FM230100 19013KT 4SM BR OVC004
     FM230900 21014KT P6SM SCT250
     FM231500 30012G22KT P6SM BKN100=



000
FTUS44 KOUN 221733
TAFSPS
TAF
KSPS 221733Z 2218/2318 13011KT P6SM VCTS OVC010CB
      TEMPO 2218/2222 4SM TSRA BKN010CB
     FM222300 14012KT 4SM -SHRA BR OVC012
     FM230100 15012KT 2SM BR OVC010
     FM230900 18010KT 5SM BR BKN012=



000
FTUS44 KOUN 221733
TAFLAW
TAF
KLAW 221733Z 2218/2318 12010KT 5SM -TSRA BR SCT006 OVC025CB
     FM222200 16012KT 4SM BR OVC020
     FM230200 15010KT 3SM BR OVC006
     FM230900 18010KT 5SM BR BKN012=



000
FTUS44 KOUN 221733
TAFOUN
TAF
KOUN 221733Z 2218/2318 14014KT 5SM -RA BR BKN060
      TEMPO 2218/2220 4SM -TSRA BR BKN050CB
     FM222000 15014KT 4SM -SHRA BR OVC020
      TEMPO 2220/2222 2SM -RA BR OVC015
     FM230400 17012KT 1SM BR OVC004=



000
FTUS44 KOUN 221733
TAFOKC
TAF
KOKC 221733Z 2218/2318 14014KT 5SM -RA BR BKN060
      TEMPO 2218/2220 4SM -TSRA BKN050CB
     FM222000 16014KT 4SM -SHRA BR OVC010
      TEMPO 2220/2222 2SM -RA BR OVC008
     FM222200 18013KT 5SM BR OVC006
     FM230400 17012KT 1SM BR OVC004=



000
FTUS44 KOUN 221526 AAA
TAFLAW
TAF AMD
KLAW 221526Z 2215/2312 12010KT 5SM -TSRA BR SCT006 OVC025CB
      TEMPO 2216/2218 2SM +TSRA BR SCT005 OVC012CB
     FM222200 16012KT 4SM BR OVC008
     FM230200 15010KT 1SM BR OVC004
     FM230900 18010KT 5SM BR BKN012=



000
FTUS44 KOUN 221526 AAA
TAFLAW
TAF AMD
KLAW 221526Z 2215/2312 12010KT 5SM -TSRA BR SCT006 OVC025CB
      TEMPO 2216/2218 2SM +TSRA BR SCT005 OVC012CB
     FM222200 16012KT 4SM BR OVC008
     FM230200 15010KT 1SM BR OVC004
     FM230900 18010KT 5SM BR BKN012=



000
FTUS44 KOUN 221524 AAA
TAFPNC
TAF AMD
KPNC 221524Z 2215/2312 17012KT 5SM BR OVC008
     FM222200 16012KT 4SM BR OVC006
     FM230400 15012KT 1SM BR OVC004=



000
FTUS44 KOUN 221524 AAA
TAFSPS
TAF AMD
KSPS 221524Z 2215/2312 13011KT P6SM VCSH SCT004 OVC017
      TEMPO 2216/2218 4SM -SHRA BR
     FM222100 16013KT 4SM -SHRA BR OVC012
     FM230100 16012KT 2SM BR OVC005
     FM230900 18010KT 5SM BR BKN012=



000
FTUS44 KOUN 221524 AAA
TAFSPS
TAF AMD
KSPS 221524Z 2215/2312 13011KT P6SM VCSH SCT004 OVC017
      TEMPO 2216/2218 4SM -SHRA BR
     FM222100 16013KT 4SM -SHRA BR OVC012
     FM230100 16012KT 2SM BR OVC005
     FM230900 18010KT 5SM BR BKN012=



000
FTUS44 KOUN 221520 AAA
TAFHBR
TAF AMD
KHBR 221520Z 2215/2312 15006KT 1/4SM FG VV002
     FM221700 18014KT 4SM BR OVC008
     FM230100 18014KT 1SM BR OVC003
     FM230800 21014KT 5SM BR SCT015=



000
FTUS44 KOUN 221520 AAB
TAFOUN
TAF AMD
KOUN 221520Z 2215/2312 13013KT 5SM -RA BR BKN060
      TEMPO 2216/2220 4SM -TSRA BR BKN050CB
     FM222000 15014KT 4SM -SHRA BR OVC010
      TEMPO 2220/2222 2SM -RA BR OVC008
     FM222200 18013KT 5SM BR OVC006
     FM230400 17012KT 1SM BR OVC004=



000
FTUS44 KOUN 221514 AAA
TAFOKC
TAF AMD
KOKC 221514Z 2215/2312 14014KT 5SM -RA BR BKN060
      TEMPO 2216/2220 4SM -TSRA BKN050CB
     FM222000 16014KT 4SM -SHRA BR OVC010
      TEMPO 2220/2222 2SM -RA BR OVC008
     FM222200 18013KT 5SM BR OVC006
     FM230400 17012KT 1SM BR OVC004=



000
FTUS44 KOUN 221514 AAA
TAFOKC
TAF AMD
KOKC 221514Z 2215/2312 14014KT 5SM -RA BR BKN060
      TEMPO 2216/2220 4SM -TSRA BKN050CB
     FM222000 16014KT 4SM -SHRA BR OVC010
      TEMPO 2220/2222 2SM -RA BR OVC008
     FM222200 18013KT 5SM BR OVC006
     FM230400 17012KT 1SM BR OVC004=



000
FTUS44 KOUN 221138
TAFSPS
TAF
KSPS 221138Z 2212/2312 15011KT 3SM -TSRA BR BKN008 OVC030CB
     FM222100 16013KT 4SM -SHRA BR OVC010
     FM230100 16012KT 2SM BR OVC005
     FM230900 18010KT 5SM BR BKN012=



000
FTUS44 KOUN 221138
TAFOUN
TAF
KOUN 221138Z 2212/2312 17012KT 4SM -SHRA BR OVC006
      TEMPO 2212/2215 1SM -TSRA BR BKN004 OVC008CB
     FM221500 17014KT 3SM -TSRA BR OVC008CB
     FM221900 16014KT 4SM -SHRA BR OVC006
     FM222300 18013KT 5SM BR OVC006
     FM230400 17012KT 1SM BR OVC004=



000
FTUS44 KOUN 221138
TAFHBR
TAF
KHBR 221138Z 2212/2312 18010KT 1SM -SHRA BR OVC003
      TEMPO 2212/2214 1/4SM FG VV002
     FM221500 18010KT 4SM -SHRA BR OVC005
      TEMPO 2215/2217 2SM -TSRA BR BKN004 OVC012CB
     FM221900 18014KT 4SM BR OVC008
     FM230100 18014KT 1SM BR OVC003
     FM230800 21014KT 5SM BR SCT015=



000
FTUS44 KOUN 221138
TAFOKC
TAF
KOKC 221138Z 2212/2312 17012KT 4SM -SHRA BR OVC006
      TEMPO 2212/2215 1SM -TSRA BKN004 OVC008CB
     FM221500 17014KT 3SM -TSRA BR OVC008CB
     FM221900 16014KT 4SM -SHRA BR OVC006
      TEMPO 2219/2221 2SM -TSRA BR BKN004 OVC010CB
     FM222200 18013KT 5SM BR OVC006
     FM230400 17012KT 1SM BR OVC004=



000
FTUS44 KOUN 221138
TAFWWR
TAF
KWWR 221138Z 2212/2312 22006KT 1SM BR OVC003
      TEMPO 2212/2214 1/4SM FG VV002
     FM221400 23006KT 3SM BR OVC005
     FM221600 19014KT 4SM BR OVC012
     FM230100 19013KT 3SM BR OVC004
     FM230600 21014KT P6SM SCT250=



000
FTUS44 KOUN 221138
TAFLAW
TAF
KLAW 221138Z 2212/2312 16008KT 3SM -TSRA BR BKN008 OVC030CB
     FM221900 17011KT 4SM -SHRA BR OVC008
      TEMPO 2219/2222 2SM -TSRA BR OVC010CB
     FM222200 16012KT 4SM BR OVC008
     FM230200 15010KT 1SM BR OVC004
     FM230900 18010KT 5SM BR BKN012=



000
FTUS44 KOUN 221138
TAFPNC
TAF
KPNC 221138Z 2212/2312 14006KT 1/4SM FG VV002
      TEMPO 2212/2215 3/4SM -SHRA BR OVC004
     FM221500 17013KT 4SM -SHRA BR OVC008
     FM222200 16012KT 4SM BR OVC008
     FM230400 15012KT 1SM BR OVC004=



000
FTUS44 KOUN 221138
TAFGAG
TAF
KGAG 221138Z 2212/2312 VRB04KT 1/4SM FG VV002
     FM221600 19014KT 4SM BR OVC012
     FM230100 19013KT 3SM BR OVC004
     FM230600 21014KT P6SM SCT250=



000
FTUS44 KOUN 221138
TAFSPS
TAF
KSPS 221138Z 2212/2312 15011KT 3SM -TSRA BR BKN008 OVC030CB
     FM222100 16013KT 4SM -SHRA BR OVC010
     FM230100 16012KT 2SM BR OVC005
     FM230900 18010KT 5SM BR BKN012=



000
FTUS44 KOUN 221138
TAFHBR
TAF
KHBR 221138Z 2212/2312 18010KT 1SM -SHRA BR OVC003
      TEMPO 2212/2214 1/4SM FG VV002
     FM221500 18010KT 4SM -SHRA BR OVC005
      TEMPO 2215/2217 2SM -TSRA BR BKN004 OVC012CB
     FM221900 18014KT 4SM BR OVC008
     FM230100 18014KT 1SM BR OVC003
     FM230800 21014KT 5SM BR SCT015=



000
FTUS44 KOUN 221138
TAFPNC
TAF
KPNC 221138Z 2212/2312 14006KT 1/4SM FG VV002
      TEMPO 2212/2215 3/4SM -SHRA BR OVC004
     FM221500 17013KT 4SM -SHRA BR OVC008
     FM222200 16012KT 4SM BR OVC008
     FM230400 15012KT 1SM BR OVC004=



000
FTUS44 KOUN 221138
TAFOUN
TAF
KOUN 221138Z 2212/2312 17012KT 4SM -SHRA BR OVC006
      TEMPO 2212/2215 1SM -TSRA BR BKN004 OVC008CB
     FM221500 17014KT 3SM -TSRA BR OVC008CB
     FM221900 16014KT 4SM -SHRA BR OVC006
     FM222300 18013KT 5SM BR OVC006
     FM230400 17012KT 1SM BR OVC004=



000
FTUS44 KOUN 221138
TAFOKC
TAF
KOKC 221138Z 2212/2312 17012KT 4SM -SHRA BR OVC006
      TEMPO 2212/2215 1SM -TSRA BKN004 OVC008CB
     FM221500 17014KT 3SM -TSRA BR OVC008CB
     FM221900 16014KT 4SM -SHRA BR OVC006
      TEMPO 2219/2221 2SM -TSRA BR BKN004 OVC010CB
     FM222200 18013KT 5SM BR OVC006
     FM230400 17012KT 1SM BR OVC004=



000
FTUS44 KOUN 221138
TAFGAG
TAF
KGAG 221138Z 2212/2312 VRB04KT 1/4SM FG VV002
     FM221600 19014KT 4SM BR OVC012
     FM230100 19013KT 3SM BR OVC004
     FM230600 21014KT P6SM SCT250=



000
FTUS44 KOUN 221138
TAFWWR
TAF
KWWR 221138Z 2212/2312 22006KT 1SM BR OVC003
      TEMPO 2212/2214 1/4SM FG VV002
     FM221400 23006KT 3SM BR OVC005
     FM221600 19014KT 4SM BR OVC012
     FM230100 19013KT 3SM BR OVC004
     FM230600 21014KT P6SM SCT250=



000
FTUS44 KOUN 221138
TAFLAW
TAF
KLAW 221138Z 2212/2312 16008KT 3SM -TSRA BR BKN008 OVC030CB
     FM221900 17011KT 4SM -SHRA BR OVC008
      TEMPO 2219/2222 2SM -TSRA BR OVC010CB
     FM222200 16012KT 4SM BR OVC008
     FM230200 15010KT 1SM BR OVC004
     FM230900 18010KT 5SM BR BKN012=



000
FTUS44 KOUN 220929 AAA
TAFPNC
TAF AMD
KPNC 220929Z 2209/2306 VRB04KT 1/4SM -DZ FG VV002
     FM221200 14006KT 1SM -SHRA BR OVC006
     FM221700 17013KT 4SM -SHRA BR OVC008
     FM222200 16012KT 4SM BR OVC008=



000
FTUS44 KOUN 220929 AAA
TAFPNC
TAF AMD
KPNC 220929Z 2209/2306 VRB04KT 1/4SM -DZ FG VV002
     FM221200 14006KT 1SM -SHRA BR OVC006
     FM221700 17013KT 4SM -SHRA BR OVC008
     FM222200 16012KT 4SM BR OVC008=



000
FTUS44 KOUN 220928 AAA
TAFWWR
TAF AMD
KWWR 220928Z 2209/2306 23006KT 3SM BR OVC003
      TEMPO 2209/2212 1/2SM -DZ FG VV002
     FM221600 19014KT 4SM BR OVC012
     FM230100 19013KT 3SM BR OVC004=



000
FTUS44 KOUN 220928 AAA
TAFWWR
TAF AMD
KWWR 220928Z 2209/2306 23006KT 3SM BR OVC003
      TEMPO 2209/2212 1/2SM -DZ FG VV002
     FM221600 19014KT 4SM BR OVC012
     FM230100 19013KT 3SM BR OVC004=



000
FTUS44 KOUN 220927 AAA
TAFGAG
TAF AMD
KGAG 220927Z 2209/2306 VRB03KT 5SM BR BKN007 OVC010
      TEMPO 2209/2212 1/2SM -DZ FG VV002
     FM221600 19014KT 4SM BR OVC012
     FM230100 19013KT 3SM BR OVC004=



000
FTUS44 KOUN 220520
TAFWWR
TAF
KWWR 220520Z 2206/2306 19006KT 1SM BR OVC007
      TEMPO 2206/2210 1/2SM -DZ FG VV002
     FM221600 19014KT 4SM BR OVC012
     FM230100 19013KT 3SM BR OVC004=



000
FTUS44 KOUN 220520
TAFOKC
TAF
KOKC 220520Z 2206/2306 16010KT 4SM BR OVC006
      TEMPO 2208/2211 2SM -SHRA BR OVC003
     FM221100 17012KT 3SM -SHRA BR OVC004
      TEMPO 2212/2215 1SM -TSRA BKN004 OVC008CB
     FM221500 17014KT 3SM -TSRA BR OVC008CB
     FM221900 16014KT 4SM -SHRA BR OVC006
      TEMPO 2219/2221 2SM -TSRA BR BKN004 OVC010CB
     FM222200 18013KT 5SM BR OVC006=



000
FTUS44 KOUN 220520
TAFGAG
TAF
KGAG 220520Z 2206/2306 19005KT 1SM BR OVC007
      TEMPO 2206/2210 1/4SM -DZ FG VV002
     FM221600 19014KT 4SM BR OVC012
     FM230100 19013KT 3SM BR OVC004=



000
FTUS44 KOUN 220520
TAFLAW
TAF
KLAW 220520Z 2206/2306 14006KT 5SM BR OVC008
      TEMPO 2206/2208 2SM -SHRA BR OVC005
     FM220800 15008KT 3SM -SHRA BR OVC004
      TEMPO 2209/2212 1SM -TSRA BR BKN003 OVC008CB
     FM221200 16012KT 3SM -TSRA BR OVC006CB
     FM221900 17011KT 4SM -SHRA BR OVC008
      TEMPO 2219/2222 2SM -TSRA BR OVC010CB
     FM222300 16012KT 4SM BR OVC008=



000
FTUS44 KOUN 220520
TAFPNC
TAF
KPNC 220520Z 2206/2306 VRB04KT 2SM BR OVC004
      TEMPO 2206/2210 1/2SM -DZ FG VV002
     FM221000 14006KT 2SM -SHRA BR OVC006
     FM221700 17013KT 4SM -SHRA BR OVC008
     FM222200 16012KT 4SM BR OVC008=



000
FTUS44 KOUN 220520
TAFGAG
TAF
KGAG 220520Z 2206/2306 19005KT 1SM BR OVC007
      TEMPO 2206/2210 1/4SM -DZ FG VV002
     FM221600 19014KT 4SM BR OVC012
     FM230100 19013KT 3SM BR OVC004=



000
FTUS44 KOUN 220520
TAFHBR
TAF
KHBR 220520Z 2206/2306 VRB04KT 4SM BR OVC010
      TEMPO 2208/2211 2SM -SHRA BR OVC006
     FM221100 18010KT 3SM -SHRA BR OVC006
      TEMPO 2213/2217 2SM -TSRA BR BKN006 OVC012CB
     FM222100 18014KT 4SM BR OVC008=



000
FTUS44 KOUN 220520
TAFWWR
TAF
KWWR 220520Z 2206/2306 19006KT 1SM BR OVC007
      TEMPO 2206/2210 1/2SM -DZ FG VV002
     FM221600 19014KT 4SM BR OVC012
     FM230100 19013KT 3SM BR OVC004=



000
FTUS44 KOUN 220520
TAFPNC
TAF
KPNC 220520Z 2206/2306 VRB04KT 2SM BR OVC004
      TEMPO 2206/2210 1/2SM -DZ FG VV002
     FM221000 14006KT 2SM -SHRA BR OVC006
     FM221700 17013KT 4SM -SHRA BR OVC008
     FM222200 16012KT 4SM BR OVC008=



000
FTUS44 KOUN 220520
TAFOKC
TAF
KOKC 220520Z 2206/2306 16010KT 4SM BR OVC006
      TEMPO 2208/2211 2SM -SHRA BR OVC003
     FM221100 17012KT 3SM -SHRA BR OVC004
      TEMPO 2212/2215 1SM -TSRA BKN004 OVC008CB
     FM221500 17014KT 3SM -TSRA BR OVC008CB
     FM221900 16014KT 4SM -SHRA BR OVC006
      TEMPO 2219/2221 2SM -TSRA BR BKN004 OVC010CB
     FM222200 18013KT 5SM BR OVC006=



000
FTUS44 KOUN 220520
TAFSPS
TAF
KSPS 220520Z 2206/2306 15007KT 5SM BR OVC008
      TEMPO 2206/2208 2SM -SHRA BR OVC005
     FM220800 15008KT 3SM -SHRA BR OVC004
      TEMPO 2208/2212 1SM -TSRA BR BKN003 OVC006CB
     FM221200 15011KT 3SM -TSRA BR OVC006CB
     FM222100 16013KT 4SM -SHRA BR OVC010
     FM230100 17012KT 5SM BR OVC008=



000
FTUS44 KOUN 220520
TAFOUN
TAF
KOUN 220520Z 2206/2306 16010KT 4SM BR OVC006
      TEMPO 2208/2211 2SM -SHRA BR OVC003
     FM221100 17012KT 3SM -SHRA BR OVC004
      TEMPO 2212/2215 1SM -TSRA BR BKN004 OVC008CB
     FM221500 17014KT 3SM -TSRA BR OVC008CB
     FM221900 16014KT 4SM -SHRA BR OVC006
     FM222300 18013KT 5SM BR OVC006=



000
FTUS44 KOUN 220520
TAFOUN
TAF
KOUN 220520Z 2206/2306 16010KT 4SM BR OVC006
      TEMPO 2208/2211 2SM -SHRA BR OVC003
     FM221100 17012KT 3SM -SHRA BR OVC004
      TEMPO 2212/2215 1SM -TSRA BR BKN004 OVC008CB
     FM221500 17014KT 3SM -TSRA BR OVC008CB
     FM221900 16014KT 4SM -SHRA BR OVC006
     FM222300 18013KT 5SM BR OVC006=



000
FTUS44 KOUN 220520
TAFHBR
TAF
KHBR 220520Z 2206/2306 VRB04KT 4SM BR OVC010
      TEMPO 2208/2211 2SM -SHRA BR OVC006
     FM221100 18010KT 3SM -SHRA BR OVC006
      TEMPO 2213/2217 2SM -TSRA BR BKN006 OVC012CB
     FM222100 18014KT 4SM BR OVC008=



000
FTUS44 KOUN 220520
TAFLAW
TAF
KLAW 220520Z 2206/2306 14006KT 5SM BR OVC008
      TEMPO 2206/2208 2SM -SHRA BR OVC005
     FM220800 15008KT 3SM -SHRA BR OVC004
      TEMPO 2209/2212 1SM -TSRA BR BKN003 OVC008CB
     FM221200 16012KT 3SM -TSRA BR OVC006CB
     FM221900 17011KT 4SM -SHRA BR OVC008
      TEMPO 2219/2222 2SM -TSRA BR OVC010CB
     FM222300 16012KT 4SM BR OVC008=



000
FTUS44 KOUN 220520
TAFSPS
TAF
KSPS 220520Z 2206/2306 15007KT 5SM BR OVC008
      TEMPO 2206/2208 2SM -SHRA BR OVC005
     FM220800 15008KT 3SM -SHRA BR OVC004
      TEMPO 2208/2212 1SM -TSRA BR BKN003 OVC006CB
     FM221200 15011KT 3SM -TSRA BR OVC006CB
     FM222100 16013KT 4SM -SHRA BR OVC010
     FM230100 17012KT 5SM BR OVC008=



000
FTUS44 KOUN 220409 AAA
TAFSPS
TAF AMD
KSPS 220409Z 2204/2224 12004KT 6SM BR SCT012 SCT220
      TEMPO 2207/2209 2SM -SHRA BR OVC005
     FM220900 15008KT 3SM -SHRA BR OVC004
      TEMPO 2209/2212 1SM -TSRA BR BKN003 OVC006CB
     FM221200 15011KT 3SM -TSRA BR OVC006CB
     FM222100 16013KT 4SM -SHRA BR OVC010=



000
FTUS44 KOUN 220409 AAA
TAFSPS
TAF AMD
KSPS 220409Z 2204/2224 12004KT 6SM BR SCT012 SCT220
      TEMPO 2207/2209 2SM -SHRA BR OVC005
     FM220900 15008KT 3SM -SHRA BR OVC004
      TEMPO 2209/2212 1SM -TSRA BR BKN003 OVC006CB
     FM221200 15011KT 3SM -TSRA BR OVC006CB
     FM222100 16013KT 4SM -SHRA BR OVC010=



000
FTUS44 KOUN 220409 AAA
TAFSPS
TAF AMD
KSPS 220409Z 2204/2224 12004KT 6SM BR SCT012 SCT220
      TEMPO 2207/2209 2SM -SHRA BR OVC005
     FM220900 15008KT 3SM -SHRA BR OVC004
      TEMPO 2209/2212 1SM -TSRA BR BKN003 OVC006CB
     FM221200 15011KT 3SM -TSRA BR OVC006CB
     FM222100 16013KT 4SM -SHRA BR OVC010=



000
FTUS44 KOUN 220409 AAA
TAFSPS
TAF AMD
KSPS 220409Z 2204/2224 12004KT 6SM BR SCT012 SCT220
      TEMPO 2207/2209 2SM -SHRA BR OVC005
     FM220900 15008KT 3SM -SHRA BR OVC004
      TEMPO 2209/2212 1SM -TSRA BR BKN003 OVC006CB
     FM221200 15011KT 3SM -TSRA BR OVC006CB
     FM222100 16013KT 4SM -SHRA BR OVC010=



000
FTUS44 KOUN 220407 AAA
TAFHBR
TAF AMD
KHBR 220407Z 2204/2224 34006KT 6SM BR FEW035
      TEMPO 2207/2211 1SM -SHRA BR OVC008
     FM221100 18010KT 3SM -RA BR OVC006
      TEMPO 2213/2217 2SM -TSRA BR BKN006 OVC012CB
     FM222000 18014KT 4SM BR BKN006 OVC015=



000
FTUS44 KOUN 220407 AAA
TAFHBR
TAF AMD
KHBR 220407Z 2204/2224 34006KT 6SM BR FEW035
      TEMPO 2207/2211 1SM -SHRA BR OVC008
     FM221100 18010KT 3SM -RA BR OVC006
      TEMPO 2213/2217 2SM -TSRA BR BKN006 OVC012CB
     FM222000 18014KT 4SM BR BKN006 OVC015=



000
FTUS44 KOUN 220407 AAB
TAFLAW
TAF AMD
KLAW 220407Z 2204/2224 VRB04KT P6SM OVC009
      TEMPO 2206/2208 2SM -SHRA BR OVC005
     FM220800 15008KT 3SM -SHRA BR OVC004
      TEMPO 2208/2212 1SM -TSRA BR BKN003 OVC006CB
     FM221200 17011KT 3SM -TSRA BR OVC006CB
     FM221900 17011KT 4SM -SHRA BR OVC010=



000
FTUS44 KOUN 220407 AAB
TAFLAW
TAF AMD
KLAW 220407Z 2204/2224 VRB04KT P6SM OVC009
      TEMPO 2206/2208 2SM -SHRA BR OVC005
     FM220800 15008KT 3SM -SHRA BR OVC004
      TEMPO 2208/2212 1SM -TSRA BR BKN003 OVC006CB
     FM221200 17011KT 3SM -TSRA BR OVC006CB
     FM221900 17011KT 4SM -SHRA BR OVC010=



000
FTUS44 KOUN 220407 AAA
TAFHBR
TAF AMD
KHBR 220407Z 2204/2224 34006KT 6SM BR FEW035
      TEMPO 2207/2211 1SM -SHRA BR OVC008
     FM221100 18010KT 3SM -RA BR OVC006
      TEMPO 2213/2217 2SM -TSRA BR BKN006 OVC012CB
     FM222000 18014KT 4SM BR BKN006 OVC015=



000
FTUS44 KOUN 220407 AAA
TAFHBR
TAF AMD
KHBR 220407Z 2204/2224 34006KT 6SM BR FEW035
      TEMPO 2207/2211 1SM -SHRA BR OVC008
     FM221100 18010KT 3SM -RA BR OVC006
      TEMPO 2213/2217 2SM -TSRA BR BKN006 OVC012CB
     FM222000 18014KT 4SM BR BKN006 OVC015=



000
FTUS44 KOUN 220405 AAA
TAFPNC
TAF AMD
KPNC 220405Z 2204/2224 VRB04KT 2SM BR OVC008
      TEMPO 2206/2208 1/4SM -DZ FG VV002
     FM221400 16007KT 2SM -DZ BR OVC007
     FM221900 17013KT 5SM BR OVC012
      TEMPO 2219/2222 3SM -SHRA BR OVC007=



000
FTUS44 KOUN 220405 AAA
TAFPNC
TAF AMD
KPNC 220405Z 2204/2224 VRB04KT 2SM BR OVC008
      TEMPO 2206/2208 1/4SM -DZ FG VV002
     FM221400 16007KT 2SM -DZ BR OVC007
     FM221900 17013KT 5SM BR OVC012
      TEMPO 2219/2222 3SM -SHRA BR OVC007=



000
FTUS44 KOUN 220405 AAA
TAFPNC
TAF AMD
KPNC 220405Z 2204/2224 VRB04KT 2SM BR OVC008
      TEMPO 2206/2208 1/4SM -DZ FG VV002
     FM221400 16007KT 2SM -DZ BR OVC007
     FM221900 17013KT 5SM BR OVC012
      TEMPO 2219/2222 3SM -SHRA BR OVC007=



000
FTUS44 KOUN 220405 AAA
TAFPNC
TAF AMD
KPNC 220405Z 2204/2224 VRB04KT 2SM BR OVC008
      TEMPO 2206/2208 1/4SM -DZ FG VV002
     FM221400 16007KT 2SM -DZ BR OVC007
     FM221900 17013KT 5SM BR OVC012
      TEMPO 2219/2222 3SM -SHRA BR OVC007=



000
FTUS44 KOUN 220404 AAB
TAFWWR
TAF AMD
KWWR 220404Z 2204/2224 20006KT 1/2SM FG OVC003
     FM220900 19006KT 3SM -DZ BR OVC007
      TEMPO 2211/2215 1SM -DZ BR OVC003
     FM221800 19013KT 4SM BR OVC012=



000
FTUS44 KOUN 220404 AAB
TAFWWR
TAF AMD
KWWR 220404Z 2204/2224 20006KT 1/2SM FG OVC003
     FM220900 19006KT 3SM -DZ BR OVC007
      TEMPO 2211/2215 1SM -DZ BR OVC003
     FM221800 19013KT 4SM BR OVC012=



000
FTUS44 KOUN 220404 AAB
TAFWWR
TAF AMD
KWWR 220404Z 2204/2224 20006KT 1/2SM FG OVC003
     FM220900 19006KT 3SM -DZ BR OVC007
      TEMPO 2211/2215 1SM -DZ BR OVC003
     FM221800 19013KT 4SM BR OVC012=



000
FTUS44 KOUN 220404 AAB
TAFWWR
TAF AMD
KWWR 220404Z 2204/2224 20006KT 1/2SM FG OVC003
     FM220900 19006KT 3SM -DZ BR OVC007
      TEMPO 2211/2215 1SM -DZ BR OVC003
     FM221800 19013KT 4SM BR OVC012=



000
FTUS44 KOUN 220403 AAB
TAFGAG
TAF AMD
KGAG 220403Z 2204/2224 19006KT 1/4SM FG VV002
     FM220800 19005KT 3SM -DZ BR OVC007
      TEMPO 2211/2215 1SM -DZ BR OVC003
     FM221800 19013KT 4SM BR OVC012=



000
FTUS44 KOUN 220403 AAB
TAFGAG
TAF AMD
KGAG 220403Z 2204/2224 19006KT 1/4SM FG VV002
     FM220800 19005KT 3SM -DZ BR OVC007
      TEMPO 2211/2215 1SM -DZ BR OVC003
     FM221800 19013KT 4SM BR OVC012=



000
FTUS44 KOUN 220403 AAB
TAFGAG
TAF AMD
KGAG 220403Z 2204/2224 19006KT 1/4SM FG VV002
     FM220800 19005KT 3SM -DZ BR OVC007
      TEMPO 2211/2215 1SM -DZ BR OVC003
     FM221800 19013KT 4SM BR OVC012=



000
FTUS44 KOUN 220403 AAB
TAFGAG
TAF AMD
KGAG 220403Z 2204/2224 19006KT 1/4SM FG VV002
     FM220800 19005KT 3SM -DZ BR OVC007
      TEMPO 2211/2215 1SM -DZ BR OVC003
     FM221800 19013KT 4SM BR OVC012=



000
FTUS44 KOUN 220135 AAA
TAFLAW
TAF AMD
KLAW 220135Z 2202/2224 VRB04KT P6SM BKN025
     FM220300 15006KT 5SM BR OVC008
      TEMPO 2204/2208 2SM -SHRA BR OVC005
     FM220800 15008KT 3SM -SHRA BR OVC004
      TEMPO 2208/2212 1SM -TSRA BR BKN003 OVC006CB
     FM221200 17011KT 3SM -TSRA BR OVC006CB
     FM221900 17011KT 4SM -SHRA BR OVC010=



000
FTUS44 KOUN 220135 AAA
TAFLAW
TAF AMD
KLAW 220135Z 2202/2224 VRB04KT P6SM BKN025
     FM220300 15006KT 5SM BR OVC008
      TEMPO 2204/2208 2SM -SHRA BR OVC005
     FM220800 15008KT 3SM -SHRA BR OVC004
      TEMPO 2208/2212 1SM -TSRA BR BKN003 OVC006CB
     FM221200 17011KT 3SM -TSRA BR OVC006CB
     FM221900 17011KT 4SM -SHRA BR OVC010=



000
FTUS44 KOUN 220117 AAA
TAFOKC
TAF AMD
KOKC 220117Z 2201/2224 17008KT P6SM OVC010
     FM220300 15007KT 4SM BR OVC008
      TEMPO 2205/2209 2SM -SHRA BR OVC004
     FM220900 16012KT 2SM -SHRA BR OVC004
      TEMPO 2215/2219 17014KT 2SM -TSRA BKN004 OVC010CB=



000
FTUS44 KOUN 220117 AAA
TAFOKC
TAF AMD
KOKC 220117Z 2201/2224 17008KT P6SM OVC010
     FM220300 15007KT 4SM BR OVC008
      TEMPO 2205/2209 2SM -SHRA BR OVC004
     FM220900 16012KT 2SM -SHRA BR OVC004
      TEMPO 2215/2219 17014KT 2SM -TSRA BKN004 OVC010CB=



000
FTUS44 KOUN 220116 AAB
TAFOUN
TAF AMD
KOUN 220116Z 2201/2224 15009KT P6SM OVC008
     FM220300 15007KT 4SM BR OVC008
      TEMPO 2205/2209 2SM -SHRA BR OVC004
     FM220900 16012KT 2SM -SHRA BR OVC004
      TEMPO 2215/2219 17014KT 2SM -TSRA BKN004 OVC010CB=



000
FTUS44 KOUN 220116 AAB
TAFOUN
TAF AMD
KOUN 220116Z 2201/2224 15009KT P6SM OVC008
     FM220300 15007KT 4SM BR OVC008
      TEMPO 2205/2209 2SM -SHRA BR OVC004
     FM220900 16012KT 2SM -SHRA BR OVC004
      TEMPO 2215/2219 17014KT 2SM -TSRA BKN004 OVC010CB=



000
FTUS44 KOUN 220113 AAA
TAFWWR
TAF AMD
KWWR 220113Z 2201/2224 16006KT P6SM BKN005
      TEMPO 2201/2204 1SM BR OVC002
     FM220500 19006KT 4SM -DZ BR OVC007
      TEMPO 2211/2215 1SM -DZ BR OVC003
     FM221800 19013KT 4SM BR OVC012=



000
FTUS44 KOUN 220112 AAA
TAFGAG
TAF AMD
KGAG 220112Z 2201/2224 16006KT 3SM BR BKN006
      TEMPO 2201/2204 1SM BR OVC002
     FM220400 19005KT 3SM -DZ BR OVC007
      TEMPO 2211/2215 1SM -DZ BR OVC003
     FM221800 19013KT 4SM BR OVC012=



000
FTUS44 KOUN 220112 AAA
TAFGAG
TAF AMD
KGAG 220112Z 2201/2224 16006KT 3SM BR BKN006
      TEMPO 2201/2204 1SM BR OVC002
     FM220400 19005KT 3SM -DZ BR OVC007
      TEMPO 2211/2215 1SM -DZ BR OVC003
     FM221800 19013KT 4SM BR OVC012=



000
FTUS44 KOUN 212334
TAFGAG
TAF
KGAG 212334Z 2200/2224 16006KT P6SM SCT007
     FM220500 19005KT 4SM -DZ BR OVC007
      TEMPO 2211/2215 1SM -DZ BR OVC003
     FM221800 19013KT 4SM BR OVC012=



000
FTUS44 KOUN 212334
TAFHBR
TAF
KHBR 212334Z 2200/2224 19006KT P6SM SCT250
     FM220400 VRB04KT 3SM BR OVC012
      TEMPO 2207/2211 1SM -SHRA BR OVC008
     FM221100 18010KT 3SM -RA BR OVC006
      TEMPO 2213/2217 2SM -TSRA BR BKN006 OVC012CB
     FM222000 18014KT 4SM BR BKN006 OVC015=



000
FTUS44 KOUN 212334
TAFWWR
TAF
KWWR 212334Z 2200/2224 16006KT P6SM BKN005
     FM220500 19006KT 4SM -DZ BR OVC007
      TEMPO 2211/2215 1SM -DZ BR OVC003
     FM221800 19013KT 4SM BR OVC012=



000
FTUS44 KOUN 212334
TAFLAW
TAF
KLAW 212334Z 2200/2224 VRB04KT P6SM SCT250
     FM220300 15006KT 5SM BR OVC008
      TEMPO 2204/2208 2SM -SHRA BR OVC005
     FM220800 15008KT 3SM -SHRA BR OVC004
      TEMPO 2208/2212 1SM -TSRA BR BKN003 OVC006CB
     FM221200 17011KT 3SM -TSRA BR OVC006CB
     FM221900 17011KT 4SM -SHRA BR OVC010=



000
FTUS44 KOUN 212334
TAFOUN
TAF
KOUN 212334Z 2200/2224 15009KT P6SM BKN030
     FM220300 15007KT 4SM BR OVC012
      TEMPO 2205/2209 2SM -SHRA BR OVC008
     FM220900 16012KT 2SM -SHRA BR OVC004
      TEMPO 2215/2219 17014KT 2SM -TSRA BKN004 OVC010CB=



000
FTUS44 KOUN 212334
TAFSPS
TAF
KSPS 212334Z 2200/2224 VRB04KT P6SM SCT030 SCT220
     FM220300 15007KT 5SM BR OVC008
      TEMPO 2204/2208 2SM -SHRA BR OVC005
     FM220800 15008KT 3SM -SHRA BR OVC004
      TEMPO 2208/2212 1SM -TSRA BR BKN003 OVC006CB
     FM221200 15011KT 3SM -TSRA BR OVC006CB
     FM222100 16013KT 4SM -SHRA BR OVC010=



000
FTUS44 KOUN 212334
TAFOKC
TAF
KOKC 212334Z 2200/2224 17008KT P6SM BKN030
     FM220300 15007KT 4SM BR OVC012
      TEMPO 2205/2209 2SM -SHRA BR OVC008
     FM220900 16012KT 2SM -SHRA BR OVC004
      TEMPO 2215/2219 17014KT 2SM -TSRA BKN004 OVC010CB=



000
FTUS44 KOUN 212334
TAFPNC
TAF
KPNC 212334Z 2200/2224 VRB04KT 1SM BR OVC004
      TEMPO 2200/2204 1/4SM -DZ FG VV002
     FM220400 VRB04KT 1/2SM -DZ FG OVC004
     FM221400 16007KT 2SM -DZ BR OVC007
     FM221900 17013KT 5SM BR OVC012
      TEMPO 2219/2222 3SM -SHRA BR OVC007=



000
FTUS44 KOUN 212334
TAFPNC
TAF
KPNC 212334Z 2200/2224 VRB04KT 1SM BR OVC004
      TEMPO 2200/2204 1/4SM -DZ FG VV002
     FM220400 VRB04KT 1/2SM -DZ FG OVC004
     FM221400 16007KT 2SM -DZ BR OVC007
     FM221900 17013KT 5SM BR OVC012
      TEMPO 2219/2222 3SM -SHRA BR OVC007=



000
FTUS44 KOUN 212334
TAFOKC
TAF
KOKC 212334Z 2200/2224 17008KT P6SM BKN030
     FM220300 15007KT 4SM BR OVC012
      TEMPO 2205/2209 2SM -SHRA BR OVC008
     FM220900 16012KT 2SM -SHRA BR OVC004
      TEMPO 2215/2219 17014KT 2SM -TSRA BKN004 OVC010CB=



000
FTUS44 KOUN 212334
TAFGAG
TAF
KGAG 212334Z 2200/2224 16006KT P6SM SCT007
     FM220500 19005KT 4SM -DZ BR OVC007
      TEMPO 2211/2215 1SM -DZ BR OVC003
     FM221800 19013KT 4SM BR OVC012=



000
FTUS44 KOUN 212334
TAFOUN
TAF
KOUN 212334Z 2200/2224 15009KT P6SM BKN030
     FM220300 15007KT 4SM BR OVC012
      TEMPO 2205/2209 2SM -SHRA BR OVC008
     FM220900 16012KT 2SM -SHRA BR OVC004
      TEMPO 2215/2219 17014KT 2SM -TSRA BKN004 OVC010CB=



000
FTUS44 KOUN 212334
TAFHBR
TAF
KHBR 212334Z 2200/2224 19006KT P6SM SCT250
     FM220400 VRB04KT 3SM BR OVC012
      TEMPO 2207/2211 1SM -SHRA BR OVC008
     FM221100 18010KT 3SM -RA BR OVC006
      TEMPO 2213/2217 2SM -TSRA BR BKN006 OVC012CB
     FM222000 18014KT 4SM BR BKN006 OVC015=



000
FTUS44 KOUN 212334
TAFWWR
TAF
KWWR 212334Z 2200/2224 16006KT P6SM BKN005
     FM220500 19006KT 4SM -DZ BR OVC007
      TEMPO 2211/2215 1SM -DZ BR OVC003
     FM221800 19013KT 4SM BR OVC012=



000
FTUS44 KOUN 212334
TAFLAW
TAF
KLAW 212334Z 2200/2224 VRB04KT P6SM SCT250
     FM220300 15006KT 5SM BR OVC008
      TEMPO 2204/2208 2SM -SHRA BR OVC005
     FM220800 15008KT 3SM -SHRA BR OVC004
      TEMPO 2208/2212 1SM -TSRA BR BKN003 OVC006CB
     FM221200 17011KT 3SM -TSRA BR OVC006CB
     FM221900 17011KT 4SM -SHRA BR OVC010=



000
FTUS44 KOUN 212334
TAFSPS
TAF
KSPS 212334Z 2200/2224 VRB04KT P6SM SCT030 SCT220
     FM220300 15007KT 5SM BR OVC008
      TEMPO 2204/2208 2SM -SHRA BR OVC005
     FM220800 15008KT 3SM -SHRA BR OVC004
      TEMPO 2208/2212 1SM -TSRA BR BKN003 OVC006CB
     FM221200 15011KT 3SM -TSRA BR OVC006CB
     FM222100 16013KT 4SM -SHRA BR OVC010=



000
FTUS44 KOUN 211958 AAB
TAFOUN
TAF AMD
KOUN 211958Z 2120/2218 17009KT 5SM BR BKN017
     FM220400 15007KT 4SM BR OVC008
      TEMPO 2204/2208 2SM -SHRA BR OVC004
     FM220800 16012KT 2SM -SHRA BR OVC004
      TEMPO 2214/2218 18012KT 2SM -TSRA BKN004 OVC010CB=



000
FTUS44 KOUN 211958 AAB
TAFOUN
TAF AMD
KOUN 211958Z 2120/2218 17009KT 5SM BR BKN017
     FM220400 15007KT 4SM BR OVC008
      TEMPO 2204/2208 2SM -SHRA BR OVC004
     FM220800 16012KT 2SM -SHRA BR OVC004
      TEMPO 2214/2218 18012KT 2SM -TSRA BKN004 OVC010CB=



000
FTUS44 KOUN 211956 AAA
TAFOKC
TAF AMD
KOKC 211956Z 2120/2218 17013KT 4SM BR BKN017
     FM220400 15007KT 4SM BR OVC008
      TEMPO 2204/2208 2SM -SHRA BR OVC004
     FM220800 16012KT 2SM -SHRA BR OVC004
      TEMPO 2214/2218 18012KT 2SM -TSRA BKN004 OVC010CB=



000
FTUS44 KOUN 211956 AAA
TAFOKC
TAF AMD
KOKC 211956Z 2120/2218 17013KT 4SM BR BKN017
     FM220400 15007KT 4SM BR OVC008
      TEMPO 2204/2208 2SM -SHRA BR OVC004
     FM220800 16012KT 2SM -SHRA BR OVC004
      TEMPO 2214/2218 18012KT 2SM -TSRA BKN004 OVC010CB=



000
FTUS44 KOUN 211747
TAFHBR
TAF
KHBR 211747Z 2118/2218 21006KT P6SM SKC
     FM212000 17008KT P6SM SCT025
     FM220400 14006KT 3SM BR OVC006
      TEMPO 2206/2210 1/2SM -TSRA FG BKN003 OVC008CB
     FM221000 18010KT 3SM -RA BR OVC006
     FM221600 19010KT 4SM BR BKN006 OVC010=



000
FTUS44 KOUN 211747
TAFOUN
TAF
KOUN 211747Z 2118/2218 15009KT 3SM -DZ BKN007 OVC011
     FM220400 15007KT 4SM BR OVC008
      TEMPO 2204/2208 2SM -SHRA BR OVC004
     FM220800 16012KT 2SM -SHRA BR OVC004
      TEMPO 2214/2218 18012KT 2SM -TSRA BKN004 OVC010CB=



000
FTUS44 KOUN 211747
TAFOKC
TAF
KOKC 211747Z 2118/2218 17010KT 4SM BR BKN009 OVC013
     FM220400 15007KT 4SM BR OVC008
      TEMPO 2204/2208 2SM -SHRA BR OVC004
     FM220800 16012KT 2SM -SHRA BR OVC004
      TEMPO 2214/2218 18012KT 2SM -TSRA BKN004 OVC010CB=



000
FTUS44 KOUN 211747
TAFLAW
TAF
KLAW 211747Z 2118/2218 22005KT P6SM FEW007 SCT015 OVC026
     FM220200 15006KT 5SM BR OVC008
      TEMPO 2204/2208 1/2SM -TSRA FG OVC005CB
     FM220800 13008KT 3SM -SHRA BR OVC004
      TEMPO 2212/2216 1SM -TSRA BR BKN003 OVC006CB=



000
FTUS44 KOUN 211747
TAFWWR
TAF
KWWR 211747Z 2118/2218 18004KT 3SM BR OVC003
     FM212300 16006KT 4SM BR OVC007
     FM220900 19008KT 2SM -DZ BR OVC008
      TEMPO 2210/2214 1SM -DZ BR OVC003
     FM221600 20012KT 4SM BR OVC007=



000
FTUS44 KOUN 211747
TAFPNC
TAF
KPNC 211747Z 2118/2218 12012KT 1/4SM FG OVC002
     FM212100 11006KT 2SM BR OVC004
      TEMPO 2206/2210 1SM -DZ BR OVC007
     FM221000 07004KT 1/2SM -DZ FG OVC004
     FM221400 15007KT 2SM -DZ BR OVC007=



000
FTUS44 KOUN 211747
TAFGAG
TAF
KGAG 211747Z 2118/2218 18004KT 1SM BR OVC002
     FM212100 18006KT 4SM BR BKN009
     FM220900 22005KT 2SM -DZ BR OVC007
      TEMPO 2210/2214 1SM -DZ BR OVC003
     FM221600 21012KT 4SM BR OVC007=



000
FTUS44 KOUN 211747
TAFSPS
TAF
KSPS 211747Z 2118/2218 22009KT P6SM SCT016 OVC023
     FM220200 16007KT 5SM BR OVC008
      TEMPO 2204/2208 2SM -TSRA BR OVC005CB
     FM220800 15008KT 3SM -SHRA BR OVC004
      TEMPO 2212/2216 1SM -TSRA BR BKN003 OVC006CB=



000
FTUS44 KOUN 211747
TAFGAG
TAF
KGAG 211747Z 2118/2218 18004KT 1SM BR OVC002
     FM212100 18006KT 4SM BR BKN009
     FM220900 22005KT 2SM -DZ BR OVC007
      TEMPO 2210/2214 1SM -DZ BR OVC003
     FM221600 21012KT 4SM BR OVC007=



000
FTUS44 KOUN 211747
TAFPNC
TAF
KPNC 211747Z 2118/2218 12012KT 1/4SM FG OVC002
     FM212100 11006KT 2SM BR OVC004
      TEMPO 2206/2210 1SM -DZ BR OVC007
     FM221000 07004KT 1/2SM -DZ FG OVC004
     FM221400 15007KT 2SM -DZ BR OVC007=



000
FTUS44 KOUN 211747
TAFOUN
TAF
KOUN 211747Z 2118/2218 15009KT 3SM -DZ BKN007 OVC011
     FM220400 15007KT 4SM BR OVC008
      TEMPO 2204/2208 2SM -SHRA BR OVC004
     FM220800 16012KT 2SM -SHRA BR OVC004
      TEMPO 2214/2218 18012KT 2SM -TSRA BKN004 OVC010CB=



000
FTUS44 KOUN 211747
TAFSPS
TAF
KSPS 211747Z 2118/2218 22009KT P6SM SCT016 OVC023
     FM220200 16007KT 5SM BR OVC008
      TEMPO 2204/2208 2SM -TSRA BR OVC005CB
     FM220800 15008KT 3SM -SHRA BR OVC004
      TEMPO 2212/2216 1SM -TSRA BR BKN003 OVC006CB=



000
FTUS44 KOUN 211747
TAFWWR
TAF
KWWR 211747Z 2118/2218 18004KT 3SM BR OVC003
     FM212300 16006KT 4SM BR OVC007
     FM220900 19008KT 2SM -DZ BR OVC008
      TEMPO 2210/2214 1SM -DZ BR OVC003
     FM221600 20012KT 4SM BR OVC007=



000
FTUS44 KOUN 211747
TAFOKC
TAF
KOKC 211747Z 2118/2218 17010KT 4SM BR BKN009 OVC013
     FM220400 15007KT 4SM BR OVC008
      TEMPO 2204/2208 2SM -SHRA BR OVC004
     FM220800 16012KT 2SM -SHRA BR OVC004
      TEMPO 2214/2218 18012KT 2SM -TSRA BKN004 OVC010CB=



000
FTUS44 KOUN 211747
TAFLAW
TAF
KLAW 211747Z 2118/2218 22005KT P6SM FEW007 SCT015 OVC026
     FM220200 15006KT 5SM BR OVC008
      TEMPO 2204/2208 1/2SM -TSRA FG OVC005CB
     FM220800 13008KT 3SM -SHRA BR OVC004
      TEMPO 2212/2216 1SM -TSRA BR BKN003 OVC006CB=



000
FTUS44 KOUN 211747
TAFHBR
TAF
KHBR 211747Z 2118/2218 21006KT P6SM SKC
     FM212000 17008KT P6SM SCT025
     FM220400 14006KT 3SM BR OVC006
      TEMPO 2206/2210 1/2SM -TSRA FG BKN003 OVC008CB
     FM221000 18010KT 3SM -RA BR OVC006
     FM221600 19010KT 4SM BR BKN006 OVC010=



    US Dept of Commerce
    National Oceanic and Atmospheric Administration
    National Weather Service
    1325 East West Highway
    Silver Spring, MD 20910
    Page Author: NWS Internet Services Team
Disclaimer
Information Quality
Credits
Glossary
Privacy Policy
Freedom of Information Act (FOIA)
About Us
Career Opportunities